Observation data for Vigo Park on 05/24/2020      Previous  Date  Next       Current Mesonet Observations  Soil Data  Daily Summary Page  Observations in Plain Language
KVP1 240500Z 11012KT 17/12 A2984 RMK A01 T01660123  RH  076%=      5-min Rain = 0
KVP1 240501Z 12011KT 17/12 A2984 RMK A01 T01660123  RH  076%=      5-min Rain = 0
KVP1 240502Z 12010KT 17/12 A2984 RMK A01 T01660123  RH  076%=      5-min Rain = 0
KVP1 240503Z 13009KT 17/12 A2984 RMK A01 T01660123  RH  076%=      5-min Rain = 0
KVP1 240504Z 13009KT 17/12 A2984 RMK A01 T01660124  RH  076%=      5-min Rain = 0
KVP1 240505Z 13010KT 17/12 A2984 RMK A01 T01650123  RH  076%=      5-min Rain = 0
KVP1 240506Z 12009KT 17/12 A2984 RMK A01 T01650124  RH  077%=      5-min Rain = 0
KVP1 240507Z 12011KT 16/12 A2984 RMK A01 T01640124  RH  077%=      5-min Rain = 0
KVP1 240508Z 13010KT 16/12 A2984 RMK A01 T01640124  RH  077%=      5-min Rain = 0
KVP1 240509Z 14009KT 16/12 A2984 RMK A01 T01640124  RH  077%=      5-min Rain = 0
KVP1 240510Z 13009KT 16/12 A2984 RMK A01 T01640124  RH  077%=      5-min Rain = 0
KVP1 240511Z 13010KT 16/12 A2984 RMK A01 T01640124  RH  077%=      5-min Rain = 0
KVP1 240512Z 13009KT 16/12 A2984 RMK A01 T01640124  RH  077%=      5-min Rain = 0
KVP1 240513Z 13009KT 16/12 A2984 RMK A01 T01640124  RH  077%=      5-min Rain = 0
KVP1 240514Z 13010KT 16/12 A2983 RMK A01 T01640124  RH  077%=      5-min Rain = 0
KVP1 240515Z 13010KT 16/12 A2983 RMK A01 T01640124  RH  077%=      5-min Rain = 0
KVP1 240516Z 13010KT 16/12 A2983 RMK A01 T01630124  RH  078%=      5-min Rain = 0
KVP1 240517Z 12010KT 16/12 A2983 RMK A01 T01630124  RH  078%=      5-min Rain = 0
KVP1 240518Z 12010KT 16/12 A2983 RMK A01 T01630124  RH  078%=      5-min Rain = 0
KVP1 240519Z 12010KT 16/12 A2983 RMK A01 T01630124  RH  078%=      5-min Rain = 0
KVP1 240520Z 12010KT 16/12 A2983 RMK A01 T01630124  RH  078%=      5-min Rain = 0
KVP1 240521Z 13009KT 16/12 A2984 RMK A01 T01620124  RH  078%=      5-min Rain = 0
KVP1 240522Z 14008KT 16/12 A2984 RMK A01 T01620124  RH  078%=      5-min Rain = 0
KVP1 240523Z 14008KT 16/12 A2984 RMK A01 T01610124  RH  078%=      5-min Rain = 0
KVP1 240524Z 14008KT 16/12 A2984 RMK A01 T01610124  RH  079%=      5-min Rain = 0
KVP1 240525Z 14008KT 16/12 A2984 RMK A01 T01600124  RH  079%=      5-min Rain = 0
KVP1 240526Z 15008KT 16/12 A2984 RMK A01 T01600124  RH  079%=      5-min Rain = 0
KVP1 240527Z 13008KT 16/13 A2984 RMK A01 T01590125  RH  080%=      5-min Rain = 0
KVP1 240528Z 13009KT 16/13 A2984 RMK A01 T01590125  RH  080%=      5-min Rain = 0
KVP1 240529Z 13009KT 16/13 A2984 RMK A01 T01590125  RH  080%=      5-min Rain = 0
KVP1 240530Z 14008KT 16/13 A2984 RMK A01 T01590125  RH  080%=      5-min Rain = 0
KVP1 240531Z 15008KT 16/13 A2984 RMK A01 T01590125  RH  080%=      5-min Rain = 0
KVP1 240532Z 14007KT 16/13 A2984 RMK A01 T01590125  RH  080%=      5-min Rain = 0
KVP1 240533Z 13008KT 16/13 A2984 RMK A01 T01590125  RH  080%=      5-min Rain = 0
KVP1 240534Z 14007KT 16/13 A2984 RMK A01 T01590125  RH  080%=      5-min Rain = 0
KVP1 240535Z 15008KT 16/13 A2984 RMK A01 T01590125  RH  080%=      5-min Rain = 0
KVP1 240536Z 15008KT 16/13 A2984 RMK A01 T01590125  RH  080%=      5-min Rain = 0
KVP1 240537Z 15008KT 16/13 A2984 RMK A01 T01590125  RH  080%=      5-min Rain = 0
KVP1 240538Z 15008KT 16/12 A2984 RMK A01 T01590124  RH  080%=      5-min Rain = 0
KVP1 240539Z 15007KT 16/12 A2984 RMK A01 T01590124  RH  080%=      5-min Rain = 0
KVP1 240540Z 15007KT 16/12 A2984 RMK A01 T01600124  RH  079%=      5-min Rain = 0
KVP1 240541Z 15007KT 16/12 A2984 RMK A01 T01600124  RH  079%=      5-min Rain = 0
KVP1 240542Z 15008KT 16/12 A2984 RMK A01 T01590124  RH  080%=      5-min Rain = 0
KVP1 240543Z 15007KT 16/12 A2984 RMK A01 T01590124  RH  080%=      5-min Rain = 0
KVP1 240544Z 15007KT 16/12 A2984 RMK A01 T01590124  RH  080%=      5-min Rain = 0
KVP1 240545Z 15008KT 16/12 A2984 RMK A01 T01590124  RH  080%=      5-min Rain = 0
KVP1 240546Z 15007KT 16/12 A2984 RMK A01 T01590124  RH  080%=      5-min Rain = 0
KVP1 240547Z 15007KT 16/12 A2984 RMK A01 T01590124  RH  080%=      5-min Rain = 0
KVP1 240548Z 15006KT 16/12 A2984 RMK A01 T01590124  RH  080%=      5-min Rain = 0
KVP1 240549Z 15007KT 16/12 A2984 RMK A01 T01590124  RH  080%=      5-min Rain = 0
KVP1 240550Z 15006KT 16/12 A2984 RMK A01 T01580124  RH  080%=      5-min Rain = 0
KVP1 240551Z 15006KT 16/12 A2984 RMK A01 T01580124  RH  080%=      5-min Rain = 0
KVP1 240552Z 15006KT 16/12 A2984 RMK A01 T01580124  RH  080%=      5-min Rain = 0
KVP1 240553Z 15006KT 16/12 A2984 RMK A01 T01570124  RH  081%=      5-min Rain = 0
KVP1 240554Z 15006KT 16/12 A2984 RMK A01 T01560124  RH  081%=      5-min Rain = 0
KVP1 240555Z 14006KT 16/12 A2984 RMK A01 T01560124  RH  081%=      5-min Rain = 0
KVP1 240556Z 14006KT 16/12 A2984 RMK A01 T01560124  RH  081%=      5-min Rain = 0
KVP1 240557Z 14007KT 16/12 A2984 RMK A01 T01560124  RH  081%=      5-min Rain = 0
KVP1 240558Z 14006KT 16/12 A2984 RMK A01 T01560124  RH  082%=      5-min Rain = 0
KVP1 240559Z 14006KT 16/12 A2984 RMK A01 T01550124  RH  082%=      5-min Rain = 0
KVP1 240600Z 14007KT 16/12 A2984 RMK A01 T01550124  RH  082%=      5-min Rain = 0
KVP1 240601Z 14007KT 16/12 A2984 RMK A01 T01550124  RH  082%=      5-min Rain = 0
KVP1 240602Z 14006KT 15/13 A2984 RMK A01 T01540125  RH  082%=      5-min Rain = 0
KVP1 240603Z 14006KT 15/13 A2984 RMK A01 T01540125  RH  082%=      5-min Rain = 0
KVP1 240604Z 15006KT 15/13 A2984 RMK A01 T01540125  RH  083%=      5-min Rain = 0
KVP1 240605Z 15005KT 15/13 A2984 RMK A01 T01540125  RH  083%=      5-min Rain = 0
KVP1 240606Z 15005KT 15/13 A2984 RMK A01 T01540125  RH  083%=      5-min Rain = 0
KVP1 240607Z 16006KT 15/13 A2984 RMK A01 T01530125  RH  083%=      5-min Rain = 0
KVP1 240608Z 16005KT 15/13 A2984 RMK A01 T01530125  RH  084%=      5-min Rain = 0
KVP1 240609Z 16005KT 15/13 A2984 RMK A01 T01520125  RH  084%=      5-min Rain = 0
KVP1 240610Z 16005KT 15/13 A2984 RMK A01 T01520126  RH  084%=      5-min Rain = 0
KVP1 240611Z 16005KT 15/13 A2984 RMK A01 T01520126  RH  084%=      5-min Rain = 0
KVP1 240612Z 17006KT 15/13 A2984 RMK A01 T01520126  RH  085%=      5-min Rain = 0
KVP1 240613Z 17006KT 15/13 A2984 RMK A01 T01520126  RH  084%=      5-min Rain = 0
KVP1 240614Z 17006KT 15/13 A2984 RMK A01 T01530126  RH  084%=      5-min Rain = 0
KVP1 240615Z 17007KT 15/13 A2984 RMK A01 T01530126  RH  084%=      5-min Rain = 0
KVP1 240616Z 17008KT 15/13 A2984 RMK A01 T01540126  RH  083%=      5-min Rain = 0
KVP1 240617Z 17009KT 16/12 A2984 RMK A01 T01550124  RH  082%=      5-min Rain = 0
KVP1 240618Z 17010KT 16/12 A2984 RMK A01 T01570123  RH  080%=      5-min Rain = 0
KVP1 240619Z 17008KT 16/12 A2984 RMK A01 T01590123  RH  079%=      5-min Rain = 0
KVP1 240620Z 17009KT 16/12 A2984 RMK A01 T01600123  RH  079%=      5-min Rain = 0
KVP1 240621Z 18009KT 16/12 A2984 RMK A01 T01610123  RH  078%=      5-min Rain = 0
KVP1 240622Z 18009KT 16/12 A2984 RMK A01 T01610122  RH  078%=      5-min Rain = 0
KVP1 240623Z 18009KT 16/12 A2984 RMK A01 T01610123  RH  078%=      5-min Rain = 0
KVP1 240624Z 18010KT 16/12 A2984 RMK A01 T01610122  RH  078%=      5-min Rain = 0
KVP1 240625Z 18010KT 16/12 A2984 RMK A01 T01610121  RH  077%=      5-min Rain = 0
KVP1 240626Z 18010KT 16/12 A2984 RMK A01 T01620121  RH  077%=      5-min Rain = 0
KVP1 240627Z 18010KT 16/12 A2984 RMK A01 T01620121  RH  077%=      5-min Rain = 0
KVP1 240628Z 17010KT 16/12 A2984 RMK A01 T01620120  RH  076%=      5-min Rain = 0
KVP1 240629Z 17011KT 16/12 A2984 RMK A01 T01630119  RH  075%=      5-min Rain = 0
KVP1 240630Z 17011KT 16/12 A2984 RMK A01 T01640119  RH  075%=      5-min Rain = 0
KVP1 240631Z 17011KT 16/12 A2984 RMK A01 T01640119  RH  075%=      5-min Rain = 0
KVP1 240632Z 17011KT 16/12 A2984 RMK A01 T01640118  RH  074%=      5-min Rain = 0
KVP1 240633Z 17011KT 16/12 A2984 RMK A01 T01640117  RH  074%=      5-min Rain = 0
KVP1 240634Z 17012KT 17/12 A2984 RMK A01 T01650117  RH  073%=      5-min Rain = 0
KVP1 240635Z 17011KT 17/12 A2984 RMK A01 T01660117  RH  073%=      5-min Rain = 0
KVP1 240636Z 17011KT 17/12 A2984 RMK A01 T01670116  RH  072%=      5-min Rain = 0
KVP1 240637Z 17011KT 17/12 A2984 RMK A01 T01670116  RH  072%=      5-min Rain = 0
KVP1 240638Z 17011KT 17/12 A2984 RMK A01 T01670116  RH  072%=      5-min Rain = 0
KVP1 240639Z 16011KT 17/12 A2984 RMK A01 T01680116  RH  072%=      5-min Rain = 0
KVP1 240640Z 17011KT 17/12 A2984 RMK A01 T01680116  RH  072%=      5-min Rain = 0
KVP1 240641Z 17011KT 17/12 A2984 RMK A01 T01680116  RH  071%=      5-min Rain = 0
KVP1 240642Z 17011KT 17/12 A2985 RMK A01 T01680116  RH  071%=      5-min Rain = 0
KVP1 240643Z 17010KT 17/12 A2985 RMK A01 T01680116  RH  071%=      5-min Rain = 0
KVP1 240644Z 17011KT 17/12 A2985 RMK A01 T01680116  RH  071%=      5-min Rain = 0
KVP1 240645Z 17011KT 17/12 A2985 RMK A01 T01680115  RH  071%=      5-min Rain = 0
KVP1 240646Z 17010KT 17/12 A2985 RMK A01 T01690115  RH  071%=      5-min Rain = 0
KVP1 240647Z 17011KT 17/12 A2985 RMK A01 T01690115  RH  071%=      5-min Rain = 0
KVP1 240648Z 16010KT 17/12 A2985 RMK A01 T01690115  RH  071%=      5-min Rain = 0
KVP1 240649Z 16010KT 17/12 A2985 RMK A01 T01690115  RH  070%=      5-min Rain = 0
KVP1 240650Z 16011KT 17/12 A2985 RMK A01 T01690115  RH  070%=      5-min Rain = 0
KVP1 240651Z 16011KT 17/12 A2985 RMK A01 T01690115  RH  070%=      5-min Rain = 0
KVP1 240652Z 16010KT 17/11 A2985 RMK A01 T01690114  RH  070%=      5-min Rain = 0
KVP1 240653Z 16010KT 17/11 A2985 RMK A01 T01690114  RH  070%=      5-min Rain = 0
KVP1 240654Z 16011KT 17/12 A2985 RMK A01 T01690115  RH  070%=      5-min Rain = 0
KVP1 240655Z 16010KT 17/12 A2985 RMK A01 T01690115  RH  070%=      5-min Rain = 0
KVP1 240656Z 16010KT 17/12 A2985 RMK A01 T01690115  RH  070%=      5-min Rain = 0
KVP1 240657Z 15011KT 17/12 A2985 RMK A01 T01690115  RH  071%=      5-min Rain = 0
KVP1 240658Z 15010KT 17/12 A2985 RMK A01 T01680115  RH  071%=      5-min Rain = 0
KVP1 240659Z 16010KT 17/12 A2985 RMK A01 T01680115  RH  071%=      5-min Rain = 0
KVP1 240700Z 16010KT 17/12 A2986 RMK A01 T01680115  RH  071%=      5-min Rain = 0
KVP1 240701Z 16010KT 17/12 A2986 RMK A01 T01670115  RH  071%=      5-min Rain = 0
KVP1 240702Z 16010KT 17/12 A2986 RMK A01 T01670115  RH  071%=      5-min Rain = 0
KVP1 240703Z 16011KT 17/11 A2986 RMK A01 T01670114  RH  071%=      5-min Rain = 0
KVP1 240704Z 16010KT 17/11 A2986 RMK A01 T01670114  RH  071%=      5-min Rain = 0
KVP1 240705Z 16011KT 17/11 A2986 RMK A01 T01670114  RH  071%=      5-min Rain = 0
KVP1 240706Z 17011KT 17/11 A2986 RMK A01 T01670114  RH  071%=      5-min Rain = 0
KVP1 240707Z 16010KT 17/11 A2986 RMK A01 T01660114  RH  071%=      5-min Rain = 0
KVP1 240708Z 16010KT 17/11 A2986 RMK A01 T01660114  RH  072%=      5-min Rain = 0
KVP1 240709Z 16011KT 17/11 A2986 RMK A01 T01660114  RH  072%=      5-min Rain = 0
KVP1 240710Z 16010KT 17/11 A2986 RMK A01 T01660114  RH  072%=      5-min Rain = 0
KVP1 240711Z 17010KT 17/11 A2986 RMK A01 T01650114  RH  072%=      5-min Rain = 0
KVP1 240712Z 17011KT 17/11 A2987 RMK A01 T01650114  RH  072%=      5-min Rain = 0
KVP1 240713Z 16010KT 17/12 A2986 RMK A01 T01650115  RH  072%=      5-min Rain = 0
KVP1 240714Z 16010KT 17/12 A2987 RMK A01 T01650115  RH  072%=      5-min Rain = 0
KVP1 240715Z 16010KT 17/11 A2987 RMK A01 T01650114  RH  072%=      5-min Rain = 0
KVP1 240716Z 16010KT 17/11 A2987 RMK A01 T01650114  RH  072%=      5-min Rain = 0
KVP1 240717Z 16009KT 17/11 A2986 RMK A01 T01660114  RH  072%=      5-min Rain = 0
KVP1 240718Z 17009KT 17/11 A2986 RMK A01 T01650114  RH  072%=      5-min Rain = 0
KVP1 240719Z 17010KT 17/11 A2987 RMK A01 T01650114  RH  072%=      5-min Rain = 0
KVP1 240720Z 17010KT 17/12 A2986 RMK A01 T01650115  RH  072%=      5-min Rain = 0
KVP1 240721Z 16010KT 16/11 A2986 RMK A01 T01640114  RH  072%=      5-min Rain = 0
KVP1 240722Z 16011KT 16/12 A2986 RMK A01 T01640115  RH  072%=      5-min Rain = 0
KVP1 240723Z 16011KT 16/11 A2986 RMK A01 T01640114  RH  072%=      5-min Rain = 0
KVP1 240724Z 16010KT 17/11 A2986 RMK A01 T01650114  RH  072%=      5-min Rain = 0
KVP1 240725Z 16011KT 17/11 A2986 RMK A01 T01650114  RH  072%=      5-min Rain = 0
KVP1 240726Z 16010KT 17/11 A2986 RMK A01 T01650114  RH  072%=      5-min Rain = 0
KVP1 240727Z 16010KT 17/11 A2986 RMK A01 T01650114  RH  072%=      5-min Rain = 0
KVP1 240728Z 15009KT 17/11 A2986 RMK A01 T01650114  RH  072%=      5-min Rain = 0
KVP1 240729Z 15010KT 17/11 A2986 RMK A01 T01650114  RH  072%=      5-min Rain = 0
KVP1 240730Z 15009KT 17/11 A2986 RMK A01 T01650114  RH  072%=      5-min Rain = 0
KVP1 240731Z 16009KT 17/12 A2986 RMK A01 T01650115  RH  072%=      5-min Rain = 0
KVP1 240732Z 17009KT 16/11 A2986 RMK A01 T01640114  RH  072%=      5-min Rain = 0
KVP1 240733Z 16008KT 16/11 A2986 RMK A01 T01640114  RH  072%=      5-min Rain = 0
KVP1 240734Z 16008KT 16/11 A2986 RMK A01 T01630114  RH  072%=      5-min Rain = 0
KVP1 240735Z 16007KT 16/11 A2986 RMK A01 T01630114  RH  073%=      5-min Rain = 0
KVP1 240736Z 16009KT 16/11 A2986 RMK A01 T01620113  RH  073%=      5-min Rain = 0
KVP1 240737Z 16009KT 16/11 A2986 RMK A01 T01630113  RH  073%=      5-min Rain = 0
KVP1 240738Z 17009KT 16/11 A2986 RMK A01 T01620113  RH  073%=      5-min Rain = 0
KVP1 240739Z 16009KT 16/11 A2986 RMK A01 T01630113  RH  073%=      5-min Rain = 0
KVP1 240740Z 16010KT 16/11 A2986 RMK A01 T01620113  RH  072%=      5-min Rain = 0
KVP1 240741Z 16011KT 16/11 A2986 RMK A01 T01630112  RH  072%=      5-min Rain = 0
KVP1 240742Z 16009KT 16/11 A2986 RMK A01 T01640112  RH  071%=      5-min Rain = 0
KVP1 240743Z 16011KT 17/11 A2986 RMK A01 T01650112  RH  071%=      5-min Rain = 0
KVP1 240744Z 15011KT 17/11 A2986 RMK A01 T01660111  RH  070%=      5-min Rain = 0
KVP1 240745Z 17009KT 17/11 A2986 RMK A01 T01670111  RH  070%=      5-min Rain = 0
KVP1 240746Z 17008KT 17/11 A2986 RMK A01 T01670112  RH  070%=      5-min Rain = 0
KVP1 240747Z 17008KT 17/11 A2986 RMK A01 T01650112  RH  071%=      5-min Rain = 0
KVP1 240748Z 18009KT 17/11 A2986 RMK A01 T01650112  RH  071%=      5-min Rain = 0
KVP1 240749Z 15008KT 16/11 A2986 RMK A01 T01630112  RH  072%=      5-min Rain = 0
KVP1 240750Z 14009KT 16/11 A2985 RMK A01 T01630112  RH  072%=      5-min Rain = 0
KVP1 240751Z 15009KT 16/11 A2986 RMK A01 T01630112  RH  072%=      5-min Rain = 0
KVP1 240752Z 15009KT 16/11 A2986 RMK A01 T01630112  RH  072%=      5-min Rain = 0
KVP1 240753Z 15009KT 16/11 A2986 RMK A01 T01630112  RH  072%=      5-min Rain = 0
KVP1 240754Z 16009KT 16/11 A2986 RMK A01 T01630112  RH  072%=      5-min Rain = 0
KVP1 240755Z 17008KT 16/11 A2986 RMK A01 T01630112  RH  072%=      5-min Rain = 0
KVP1 240756Z 17008KT 16/11 A2986 RMK A01 T01630113  RH  072%=      5-min Rain = 0
KVP1 240757Z 16008KT 16/11 A2986 RMK A01 T01620113  RH  073%=      5-min Rain = 0
KVP1 240758Z 15008KT 16/11 A2986 RMK A01 T01610113  RH  073%=      5-min Rain = 0
KVP1 240759Z 15007KT 16/11 A2986 RMK A01 T01610113  RH  073%=      5-min Rain = 0
KVP1 240800Z 15007KT 16/11 A2985 RMK A01 T01610113  RH  073%=      5-min Rain = 0
KVP1 240801Z 15008KT 16/11 A2985 RMK A01 T01600113  RH  074%=      5-min Rain = 0
KVP1 240802Z 15007KT 16/11 A2986 RMK A01 T01600113  RH  074%=      5-min Rain = 0
KVP1 240803Z 15008KT 16/11 A2985 RMK A01 T01590113  RH  074%=      5-min Rain = 0
KVP1 240804Z 16008KT 16/11 A2986 RMK A01 T01590113  RH  074%=      5-min Rain = 0
KVP1 240805Z 16007KT 16/11 A2986 RMK A01 T01590112  RH  074%=      5-min Rain = 0
KVP1 240806Z 15007KT 16/11 A2985 RMK A01 T01580112  RH  074%=      5-min Rain = 0
KVP1 240807Z 15007KT 16/11 A2985 RMK A01 T01580112  RH  074%=      5-min Rain = 0
KVP1 240808Z 15007KT 16/11 A2986 RMK A01 T01580112  RH  074%=      5-min Rain = 0
KVP1 240809Z 15007KT 16/11 A2986 RMK A01 T01580112  RH  074%=      5-min Rain = 0
KVP1 240810Z 15007KT 16/11 A2986 RMK A01 T01570112  RH  075%=      5-min Rain = 0
KVP1 240811Z 15008KT 16/11 A2986 RMK A01 T01570112  RH  075%=      5-min Rain = 0
KVP1 240812Z 15008KT 16/11 A2986 RMK A01 T01570112  RH  074%=      5-min Rain = 0
KVP1 240813Z 14008KT 16/11 A2986 RMK A01 T01570112  RH  074%=      5-min Rain = 0
KVP1 240814Z 15008KT 16/11 A2986 RMK A01 T01570112  RH  074%=      5-min Rain = 0
KVP1 240815Z 15008KT 16/11 A2986 RMK A01 T01570112  RH  074%=      5-min Rain = 0
KVP1 240816Z 15008KT 16/11 A2986 RMK A01 T01570112  RH  074%=      5-min Rain = 0
KVP1 240817Z 15008KT 16/11 A2986 RMK A01 T01570112  RH  074%=      5-min Rain = 0
KVP1 240818Z 15007KT 16/11 A2986 RMK A01 T01570112  RH  074%=      5-min Rain = 0
KVP1 240819Z 14008KT 16/11 A2986 RMK A01 T01570112  RH  074%=      5-min Rain = 0
KVP1 240820Z 15008KT 16/11 A2986 RMK A01 T01570112  RH  074%=      5-min Rain = 0
KVP1 240821Z 15008KT 16/11 A2986 RMK A01 T01570112  RH  074%=      5-min Rain = 0
KVP1 240822Z 14007KT 16/11 A2986 RMK A01 T01580112  RH  074%=      5-min Rain = 0
KVP1 240823Z 14007KT 16/11 A2986 RMK A01 T01570112  RH  074%=      5-min Rain = 0
KVP1 240824Z 14008KT 16/11 A2986 RMK A01 T01560112  RH  075%=      5-min Rain = 0
KVP1 240825Z 14007KT 16/11 A2986 RMK A01 T01560112  RH  075%=      5-min Rain = 0
KVP1 240826Z 13007KT 16/11 A2986 RMK A01 T01550112  RH  076%=      5-min Rain = 0
KVP1 240827Z 13006KT 15/11 A2986 RMK A01 T01540112  RH  076%=      5-min Rain = 0
KVP1 240828Z 13006KT 15/11 A2986 RMK A01 T01530111  RH  076%=      5-min Rain = 0
KVP1 240829Z 13006KT 15/11 A2986 RMK A01 T01520111  RH  076%=      5-min Rain = 0
KVP1 240830Z 14006KT 15/11 A2986 RMK A01 T01520111  RH  076%=      5-min Rain = 0
KVP1 240831Z 14006KT 15/11 A2987 RMK A01 T01510111  RH  077%=      5-min Rain = 0
KVP1 240832Z 14006KT 15/11 A2987 RMK A01 T01500111  RH  077%=      5-min Rain = 0
KVP1 240833Z 14007KT 15/11 A2987 RMK A01 T01500111  RH  078%=      5-min Rain = 0
KVP1 240834Z 13007KT 15/11 A2987 RMK A01 T01490111  RH  078%=      5-min Rain = 0
KVP1 240835Z 12007KT 15/11 A2987 RMK A01 T01490111  RH  078%=      5-min Rain = 0
KVP1 240836Z 12007KT 15/11 A2987 RMK A01 T01490111  RH  078%=      5-min Rain = 0
KVP1 240837Z 12006KT 15/11 A2987 RMK A01 T01480111  RH  078%=      5-min Rain = 0
KVP1 240838Z 12006KT 15/11 A2986 RMK A01 T01480111  RH  078%=      5-min Rain = 0
KVP1 240839Z 13006KT 15/11 A2986 RMK A01 T01470111  RH  079%=      5-min Rain = 0
KVP1 240840Z 14006KT 15/11 A2986 RMK A01 T01470111  RH  079%=      5-min Rain = 0
KVP1 240841Z 14006KT 15/11 A2986 RMK A01 T01470111  RH  079%=      5-min Rain = 0
KVP1 240842Z 15007KT 15/11 A2986 RMK A01 T01460111  RH  079%=      5-min Rain = 0
KVP1 240843Z 15006KT 15/11 A2986 RMK A01 T01460111  RH  079%=      5-min Rain = 0
KVP1 240844Z 15006KT 15/11 A2987 RMK A01 T01450111  RH  080%=      5-min Rain = 0
KVP1 240845Z 15007KT 15/11 A2987 RMK A01 T01450112  RH  080%=      5-min Rain = 0
KVP1 240846Z 15007KT 15/11 A2987 RMK A01 T01450112  RH  081%=      5-min Rain = 0
KVP1 240847Z 14007KT 15/11 A2987 RMK A01 T01450113  RH  081%=      5-min Rain = 0
KVP1 240848Z 14008KT 15/11 A2987 RMK A01 T01450113  RH  081%=      5-min Rain = 0
KVP1 240849Z 15008KT 15/11 A2987 RMK A01 T01460113  RH  081%=      5-min Rain = 0
KVP1 240850Z 15008KT 15/11 A2987 RMK A01 T01470114  RH  080%=      5-min Rain = 0
KVP1 240851Z 15008KT 15/11 A2987 RMK A01 T01480114  RH  080%=      5-min Rain = 0
KVP1 240852Z 15008KT 15/11 A2987 RMK A01 T01480114  RH  080%=      5-min Rain = 0
KVP1 240853Z 15008KT 15/11 A2987 RMK A01 T01480113  RH  080%=      5-min Rain = 0
KVP1 240854Z 16008KT 15/11 A2987 RMK A01 T01480114  RH  080%=      5-min Rain = 0
KVP1 240855Z 16007KT 15/11 A2987 RMK A01 T01480113  RH  080%=      5-min Rain = 0
KVP1 240856Z 16007KT 15/11 A2987 RMK A01 T01470113  RH  080%=      5-min Rain = 0
KVP1 240857Z 16007KT 15/11 A2987 RMK A01 T01470113  RH  080%=      5-min Rain = 0
KVP1 240858Z 16007KT 15/11 A2987 RMK A01 T01460113  RH  080%=      5-min Rain = 0
KVP1 240859Z 15007KT 15/11 A2986 RMK A01 T01460113  RH  081%=      5-min Rain = 0
KVP1 240900Z 15007KT 15/11 A2986 RMK A01 T01450113  RH  081%=      5-min Rain = 0
KVP1 240901Z 15007KT 15/11 A2987 RMK A01 T01450113  RH  081%=      5-min Rain = 0
KVP1 240902Z 15007KT 14/11 A2987 RMK A01 T01440113  RH  081%=      5-min Rain = 0
KVP1 240903Z 15007KT 14/11 A2987 RMK A01 T01430113  RH  082%=      5-min Rain = 0
KVP1 240904Z 15007KT 14/11 A2987 RMK A01 T01420113  RH  082%=      5-min Rain = 0
KVP1 240905Z 15007KT 14/11 A2986 RMK A01 T01420113  RH  083%=      5-min Rain = 0
KVP1 240906Z 15006KT 14/11 A2987 RMK A01 T01410113  RH  083%=      5-min Rain = 0
KVP1 240907Z 15006KT 14/11 A2986 RMK A01 T01410113  RH  083%=      5-min Rain = 0
KVP1 240908Z 15006KT 14/11 A2986 RMK A01 T01400112  RH  083%=      5-min Rain = 0
KVP1 240909Z 15006KT 14/11 A2986 RMK A01 T01390112  RH  084%=      5-min Rain = 0
KVP1 240910Z 14007KT 14/11 A2986 RMK A01 T01390112  RH  084%=      5-min Rain = 0
KVP1 240911Z 14007KT 14/11 A2986 RMK A01 T01380113  RH  084%=      5-min Rain = 0
KVP1 240912Z 14007KT 14/11 A2986 RMK A01 T01370112  RH  085%=      5-min Rain = 0
KVP1 240913Z 14007KT 14/11 A2986 RMK A01 T01370113  RH  085%=      5-min Rain = 0
KVP1 240914Z 14007KT 14/11 A2986 RMK A01 T01370113  RH  085%=      5-min Rain = 0
KVP1 240915Z 14007KT 14/11 A2986 RMK A01 T01370113  RH  086%=      5-min Rain = 0
KVP1 240916Z 15007KT 14/11 A2987 RMK A01 T01360113  RH  086%=      5-min Rain = 0
KVP1 240917Z 15007KT 14/11 A2987 RMK A01 T01360113  RH  086%=      5-min Rain = 0
KVP1 240918Z 15007KT 14/11 A2986 RMK A01 T01360113  RH  086%=      5-min Rain = 0
KVP1 240919Z 15007KT 14/11 A2987 RMK A01 T01360114  RH  086%=      5-min Rain = 0
KVP1 240920Z 15008KT 14/11 A2987 RMK A01 T01360114  RH  087%=      5-min Rain = 0
KVP1 240921Z 15008KT 14/11 A2987 RMK A01 T01360114  RH  087%=      5-min Rain = 0
KVP1 240922Z 14008KT 14/12 A2987 RMK A01 T01360115  RH  087%=      5-min Rain = 0
KVP1 240923Z 14007KT 14/12 A2987 RMK A01 T01360115  RH  087%=      5-min Rain = 0
KVP1 240924Z 14008KT 14/12 A2987 RMK A01 T01360115  RH  087%=      5-min Rain = 0
KVP1 240925Z 14008KT 14/12 A2987 RMK A01 T01360116  RH  087%=      5-min Rain = 0
KVP1 240926Z 14008KT 14/12 A2987 RMK A01 T01360116  RH  087%=      5-min Rain = 0
KVP1 240927Z 14008KT 14/12 A2987 RMK A01 T01370117  RH  087%=      5-min Rain = 0
KVP1 240928Z 15007KT 14/12 A2987 RMK A01 T01380117  RH  087%=      5-min Rain = 0
KVP1 240929Z 15007KT 14/12 A2987 RMK A01 T01380117  RH  087%=      5-min Rain = 0
KVP1 240930Z 16008KT 14/12 A2987 RMK A01 T01380117  RH  087%=      5-min Rain = 0
KVP1 240931Z 16008KT 14/12 A2987 RMK A01 T01390117  RH  087%=      5-min Rain = 0
KVP1 240932Z 16008KT 14/12 A2987 RMK A01 T01390118  RH  087%=      5-min Rain = 0
KVP1 240933Z 15007KT 14/12 A2987 RMK A01 T01400118  RH  087%=      5-min Rain = 0
KVP1 240934Z 16007KT 14/12 A2987 RMK A01 T01410119  RH  087%=      5-min Rain = 0
KVP1 240935Z 16008KT 14/12 A2987 RMK A01 T01410119  RH  086%=      5-min Rain = 0
KVP1 240936Z 16007KT 14/12 A2987 RMK A01 T01420119  RH  086%=      5-min Rain = 0
KVP1 240937Z 17008KT 14/12 A2987 RMK A01 T01430120  RH  086%=      5-min Rain = 0
KVP1 240938Z 16008KT 14/12 A2987 RMK A01 T01430120  RH  086%=      5-min Rain = 0
KVP1 240939Z 16008KT 14/12 A2987 RMK A01 T01440120  RH  086%=      5-min Rain = 0
KVP1 240940Z 15008KT 15/12 A2986 RMK A01 T01450121  RH  085%=      5-min Rain = 0
KVP1 240941Z 15008KT 15/12 A2986 RMK A01 T01450120  RH  085%=      5-min Rain = 0
KVP1 240942Z 16009KT 15/12 A2987 RMK A01 T01450120  RH  085%=      5-min Rain = 0
KVP1 240943Z 16010KT 14/12 A2987 RMK A01 T01440120  RH  085%=      5-min Rain = 0
KVP1 240944Z 16008KT 15/12 A2987 RMK A01 T01450120  RH  085%=      5-min Rain = 0
KVP1 240945Z 16007KT 14/12 A2986 RMK A01 T01440121  RH  086%=      5-min Rain = 0
KVP1 240946Z 16007KT 14/12 A2986 RMK A01 T01440121  RH  086%=      5-min Rain = 0
KVP1 240947Z 17007KT 14/12 A2987 RMK A01 T01440121  RH  086%=      5-min Rain = 0
KVP1 240948Z 17008KT 14/12 A2987 RMK A01 T01440121  RH  086%=      5-min Rain = 0
KVP1 240949Z 17007KT 14/12 A2987 RMK A01 T01430121  RH  086%=      5-min Rain = 0
KVP1 240950Z 16007KT 14/12 A2987 RMK A01 T01420121  RH  087%=      5-min Rain = 0
KVP1 240951Z 16007KT 14/12 A2987 RMK A01 T01420121  RH  087%=      5-min Rain = 0
KVP1 240952Z 16007KT 14/12 A2986 RMK A01 T01410121  RH  088%=      5-min Rain = 0
KVP1 240953Z 16007KT 14/12 A2986 RMK A01 T01410122  RH  088%=      5-min Rain = 0
KVP1 240954Z 16007KT 14/12 A2986 RMK A01 T01410123  RH  089%=      5-min Rain = 0
KVP1 240955Z 16007KT 14/12 A2986 RMK A01 T01410124  RH  089%=      5-min Rain = 0
KVP1 240956Z 16006KT 14/12 A2986 RMK A01 T01420124  RH  089%=      5-min Rain = 0
KVP1 240957Z 15006KT 14/12 A2986 RMK A01 T01430124  RH  088%=      5-min Rain = 0
KVP1 240958Z 16007KT 14/12 A2986 RMK A01 T01430123  RH  088%=      5-min Rain = 0
KVP1 240959Z 16007KT 14/12 A2986 RMK A01 T01430123  RH  088%=      5-min Rain = 0
KVP1 241000Z 15007KT 14/12 A2986 RMK A01 T01430123  RH  088%=      5-min Rain = 0
KVP1 241001Z 14006KT 14/12 A2986 RMK A01 T01420123  RH  088%=      5-min Rain = 0
KVP1 241002Z 15006KT 14/12 A2986 RMK A01 T01420123  RH  089%=      5-min Rain = 0
KVP1 241003Z 17007KT 14/12 A2986 RMK A01 T01420123  RH  089%=      5-min Rain = 0
KVP1 241004Z 18006KT 14/12 A2986 RMK A01 T01410123  RH  089%=      5-min Rain = 0
KVP1 241005Z 17006KT 14/12 A2986 RMK A01 T01400124  RH  090%=      5-min Rain = 0
KVP1 241006Z 15006KT 14/12 A2986 RMK A01 T01390124  RH  091%=      5-min Rain = 0
KVP1 241007Z 15007KT 14/13 A2986 RMK A01 T01390125  RH  091%=      5-min Rain = 0
KVP1 241008Z 15007KT 14/13 A2986 RMK A01 T01380125  RH  092%=      5-min Rain = 0
KVP1 241009Z 15007KT 14/13 A2986 RMK A01 T01380126  RH  092%=      5-min Rain = 0
KVP1 241010Z 15007KT 14/13 A2986 RMK A01 T01390127  RH  092%=      5-min Rain = 0
KVP1 241011Z 15007KT 14/13 A2986 RMK A01 T01390127  RH  092%=      5-min Rain = 0
KVP1 241012Z 16007KT 14/13 A2986 RMK A01 T01400127  RH  092%=      5-min Rain = 0
KVP1 241013Z 16007KT 14/13 A2986 RMK A01 T01400127  RH  092%=      5-min Rain = 0
KVP1 241014Z 16007KT 14/13 A2986 RMK A01 T01400127  RH  092%=      5-min Rain = 0
KVP1 241015Z 17007KT 14/13 A2986 RMK A01 T01400127  RH  092%=      5-min Rain = 0
KVP1 241016Z 16007KT 14/13 A2986 RMK A01 T01400128  RH  092%=      5-min Rain = 0
KVP1 241017Z 17008KT 14/13 A2986 RMK A01 T01400127  RH  092%=      5-min Rain = 0
KVP1 241018Z 17008KT 14/13 A2986 RMK A01 T01400128  RH  092%=      5-min Rain = 0
KVP1 241019Z 17008KT 14/13 A2986 RMK A01 T01390127  RH  092%=      5-min Rain = 0
KVP1 241020Z 17007KT 14/13 A2986 RMK A01 T01400127  RH  092%=      5-min Rain = 0
KVP1 241021Z 17007KT 14/13 A2986 RMK A01 T01400127  RH  092%=      5-min Rain = 0
KVP1 241022Z 17007KT 14/13 A2986 RMK A01 T01400127  RH  092%=      5-min Rain = 0
KVP1 241023Z 17007KT 14/13 A2986 RMK A01 T01400127  RH  092%=      5-min Rain = 0
KVP1 241024Z 17007KT 14/13 A2986 RMK A01 T01400127  RH  092%=      5-min Rain = 0
KVP1 241025Z 17007KT 14/13 A2986 RMK A01 T01400127  RH  092%=      5-min Rain = 0
KVP1 241026Z 17007KT 14/13 A2986 RMK A01 T01400128  RH  093%=      5-min Rain = 0
KVP1 241027Z 17007KT 14/13 A2986 RMK A01 T01390128  RH  093%=      5-min Rain = 0
KVP1 241028Z 17007KT 14/13 A2986 RMK A01 T01390128  RH  093%=      5-min Rain = 0
KVP1 241029Z 17008KT 14/13 A2986 RMK A01 T01390129  RH  093%=      5-min Rain = 0
KVP1 241030Z 18008KT 14/13 A2986 RMK A01 T01390128  RH  093%=      5-min Rain = 0
KVP1 241031Z 18007KT 14/13 A2986 RMK A01 T01390128  RH  093%=      5-min Rain = 0
KVP1 241032Z 18007KT 14/13 A2986 RMK A01 T01380128  RH  094%=      5-min Rain = 0
KVP1 241033Z 18007KT 14/13 A2986 RMK A01 T01380129  RH  094%=      5-min Rain = 0
KVP1 241034Z 18007KT 14/13 A2986 RMK A01 T01380129  RH  095%=      5-min Rain = 0
KVP1 241035Z 18007KT 14/13 A2986 RMK A01 T01380129  RH  095%=      5-min Rain = 0
KVP1 241036Z 18006KT 14/13 A2986 RMK A01 T01370129  RH  095%=      5-min Rain = 0
KVP1 241037Z 18006KT 14/13 A2986 RMK A01 T01370129  RH  095%=      5-min Rain = 0
KVP1 241038Z 18006KT 14/13 A2986 RMK A01 T01370129  RH  095%=      5-min Rain = 0
KVP1 241039Z 18005KT 14/13 A2986 RMK A01 T01360129  RH  095%=      5-min Rain = 0
KVP1 241040Z 19005KT 14/13 A2986 RMK A01 T01360129  RH  096%=      5-min Rain = 0
KVP1 241041Z 19005KT 13/13 A2986 RMK A01 T01340128  RH  096%=      5-min Rain = 0
KVP1 241042Z 20006KT 13/13 A2986 RMK A01 T01340128  RH  097%=      5-min Rain = 0
KVP1 241043Z 20005KT 13/13 A2986 RMK A01 T01330128  RH  097%=      5-min Rain = 0
KVP1 241044Z 18006KT 13/13 A2985 RMK A01 T01320128  RH  098%=      5-min Rain = 0
KVP1 241045Z 18006KT 13/13 A2985 RMK A01 T01320129  RH  098%=      5-min Rain = 0
KVP1 241046Z 18006KT 13/13 A2985 RMK A01 T01310129  RH  099%=      5-min Rain = 0
KVP1 241047Z 18007KT 13/13 A2985 RMK A01 T01310130  RH  099%=      5-min Rain = 0
KVP1 241048Z 18006KT 13/13 A2985 RMK A01 T01310130  RH  099%=      5-min Rain = 0
KVP1 241049Z 18006KT 13/13 A2985 RMK A01 T01310130  RH  099%=      5-min Rain = 0
KVP1 241050Z 19007KT 13/13 A2985 RMK A01 T01310130  RH  099%=      5-min Rain = 0
KVP1 241051Z 19006KT 13/13 A2985 RMK A01 T01310130  RH  100%=      5-min Rain = 0
KVP1 241052Z 18006KT 13/13 A2985 RMK A01 T01310131  RH  100%=      5-min Rain = 0
KVP1 241053Z 18006KT 13/13 A2985 RMK A01 T01310131  RH  100%=      5-min Rain = 0
KVP1 241054Z 18006KT 13/13 A2985 RMK A01 T01310131  RH  100%=      5-min Rain = 0
KVP1 241055Z 19006KT 13/13 A2985 RMK A01 T01310131  RH  100%=      5-min Rain = 0
KVP1 241056Z 19006KT 13/13 A2985 RMK A01 T01300130  RH  100%=      5-min Rain = 0
KVP1 241057Z 19006KT 13/13 A2985 RMK A01 T01300130  RH  100%=      5-min Rain = 0
KVP1 241058Z 19006KT 13/13 A2985 RMK A01 T01300130  RH  100%=      5-min Rain = 0
KVP1 241059Z 19006KT 13/13 A2986 RMK A01 T01290129  RH  100%=      5-min Rain = 0
KVP1 241100Z 19006KT 13/13 A2986 RMK A01 T01280129  RH  100%=      5-min Rain = 0
KVP1 241101Z 18006KT 13/13 A2986 RMK A01 T01280128  RH  100%=      5-min Rain = 0
KVP1 241102Z 18006KT 13/13 A2986 RMK A01 T01280128  RH  100%=      5-min Rain = 0
KVP1 241103Z 19006KT 13/13 A2986 RMK A01 T01270128  RH  100%=      5-min Rain = 0
KVP1 241104Z 20007KT 13/13 A2986 RMK A01 T01270127  RH  100%=      5-min Rain = 0
KVP1 241105Z 20006KT 13/13 A2986 RMK A01 T01260126  RH  100%=      5-min Rain = 0
KVP1 241106Z 19007KT 13/13 A2986 RMK A01 T01250125  RH  100%=      5-min Rain = 0
KVP1 241107Z 19007KT 13/13 A2986 RMK A01 T01250125  RH  100%=      5-min Rain = 0
KVP1 241108Z 19007KT 13/13 A2986 RMK A01 T01250125  RH  100%=      5-min Rain = 0
KVP1 241109Z 19007KT 13/13 A2986 RMK A01 T01250125  RH  100%=      5-min Rain = 0
KVP1 241110Z 20006KT 13/13 A2986 RMK A01 T01250126  RH  100%=      5-min Rain = 0
KVP1 241111Z 20007KT 13/13 A2986 RMK A01 T01260126  RH  100%=      5-min Rain = 0
KVP1 241112Z 20007KT 13/13 A2986 RMK A01 T01260126  RH  100%=      5-min Rain = 0
KVP1 241113Z 21006KT 13/13 A2986 RMK A01 T01270127  RH  100%=      5-min Rain = 0
KVP1 241114Z 21007KT 13/13 A2986 RMK A01 T01270127  RH  100%=      5-min Rain = 0
KVP1 241115Z 21006KT 13/13 A2986 RMK A01 T01260126  RH  100%=      5-min Rain = 0
KVP1 241116Z 21006KT 13/13 A2986 RMK A01 T01250126  RH  100%=      5-min Rain = 0
KVP1 241117Z 21007KT 13/13 A2986 RMK A01 T01250125  RH  100%=      5-min Rain = 0
KVP1 241118Z 20007KT 12/12 A2986 RMK A01 T01240124  RH  100%=      5-min Rain = 0
KVP1 241119Z 20008KT 12/12 A2986 RMK A01 T01240124  RH  100%=      5-min Rain = 0
KVP1 241120Z 20007KT 13/13 A2986 RMK A01 T01250125  RH  100%=      5-min Rain = 0
KVP1 241121Z 19008KT 13/13 A2986 RMK A01 T01270127  RH  100%=      5-min Rain = 0
KVP1 241122Z 19008KT 13/13 A2986 RMK A01 T01290129  RH  100%=      5-min Rain = 0
KVP1 241123Z 20007KT 13/13 A2986 RMK A01 T01300130  RH  100%=      5-min Rain = 0
KVP1 241124Z 19007KT 13/13 A2986 RMK A01 T01310129  RH  099%=      5-min Rain = 0
KVP1 241125Z 19008KT 13/13 A2986 RMK A01 T01310128  RH  098%=      5-min Rain = 0
KVP1 241126Z 19008KT 13/13 A2986 RMK A01 T01310127  RH  098%=      5-min Rain = 0
KVP1 241127Z 18009KT 13/13 A2986 RMK A01 T01310127  RH  097%=      5-min Rain = 0
KVP1 241128Z 18008KT 13/13 A2986 RMK A01 T01320127  RH  097%=      5-min Rain = 0
KVP1 241129Z 19008KT 13/13 A2986 RMK A01 T01330127  RH  096%=      5-min Rain = 0
KVP1 241130Z 18009KT 13/13 A2986 RMK A01 T01330127  RH  096%=      5-min Rain = 0
KVP1 241131Z 18009KT 13/13 A2986 RMK A01 T01340127  RH  096%=      5-min Rain = 0
KVP1 241132Z 18010KT 14/13 A2986 RMK A01 T01350127  RH  095%=      5-min Rain = 0
KVP1 241133Z 18009KT 14/13 A2986 RMK A01 T01360127  RH  094%=      5-min Rain = 0
KVP1 241134Z 18009KT 14/13 A2986 RMK A01 T01360127  RH  094%=      5-min Rain = 0
KVP1 241135Z 18009KT 14/13 A2986 RMK A01 T01360127  RH  094%=      5-min Rain = 0
KVP1 241136Z 18009KT 14/13 A2986 RMK A01 T01370127  RH  094%=      5-min Rain = 0
KVP1 241137Z 18009KT 14/13 A2986 RMK A01 T01370127  RH  094%=      5-min Rain = 0
KVP1 241138Z 18008KT 14/13 A2986 RMK A01 T01360127  RH  094%=      5-min Rain = 0
KVP1 241139Z 18009KT 14/13 A2986 RMK A01 T01360126  RH  094%=      5-min Rain = 0
KVP1 241140Z 18009KT 14/13 A2986 RMK A01 T01360126  RH  094%=      5-min Rain = 0
KVP1 241141Z 18010KT 14/13 A2986 RMK A01 T01360126  RH  094%=      5-min Rain = 0
KVP1 241142Z 18010KT 14/13 A2986 RMK A01 T01370126  RH  093%=      5-min Rain = 0
KVP1 241143Z 18010KT 14/13 A2986 RMK A01 T01370126  RH  093%=      5-min Rain = 0
KVP1 241144Z 18010KT 14/13 A2986 RMK A01 T01380126  RH  092%=      5-min Rain = 0
KVP1 241145Z 19010KT 14/13 A2986 RMK A01 T01390125  RH  092%=      5-min Rain = 0
KVP1 241146Z 19010KT 14/13 A2986 RMK A01 T01390125  RH  091%=      5-min Rain = 0
KVP1 241147Z 19010KT 14/13 A2986 RMK A01 T01390125  RH  092%=      5-min Rain = 0
KVP1 241148Z 19009KT 14/13 A2986 RMK A01 T01390125  RH  092%=      5-min Rain = 0
KVP1 241149Z 19010KT 14/13 A2986 RMK A01 T01390125  RH  092%=      5-min Rain = 0
KVP1 241150Z 19009KT 14/13 A2986 RMK A01 T01390126  RH  092%=      5-min Rain = 0
KVP1 241151Z 19010KT 14/13 A2986 RMK A01 T01380126  RH  092%=      5-min Rain = 0
KVP1 241152Z 19009KT 14/13 A2986 RMK A01 T01380126  RH  092%=      5-min Rain = 0
KVP1 241153Z 19010KT 14/13 A2986 RMK A01 T01380126  RH  092%=      5-min Rain = 0
KVP1 241154Z 19009KT 14/13 A2986 RMK A01 T01380126  RH  092%=      5-min Rain = 0
KVP1 241155Z 19009KT 14/13 A2986 RMK A01 T01380125  RH  092%=      5-min Rain = 0
KVP1 241156Z 19010KT 14/13 A2986 RMK A01 T01380125  RH  092%=      5-min Rain = 0
KVP1 241157Z 19009KT 14/13 A2986 RMK A01 T01380125  RH  092%=      5-min Rain = 0
KVP1 241158Z 19009KT 14/13 A2986 RMK A01 T01370125  RH  092%=      5-min Rain = 0
KVP1 241159Z 19010KT 14/13 A2986 RMK A01 T01370126  RH  093%=      5-min Rain = 0
KVP1 241200Z 19009KT 14/13 A2986 RMK A01 T01370126  RH  093%=      5-min Rain = 0
KVP1 241201Z 19009KT 14/13 A2986 RMK A01 T01360126  RH  093%=      5-min Rain = 0
KVP1 241202Z 19009KT 14/13 A2986 RMK A01 T01360126  RH  094%=      5-min Rain = 0
KVP1 241203Z 19009KT 14/13 A2986 RMK A01 T01350126  RH  094%=      5-min Rain = 0
KVP1 241204Z 19009KT 14/13 A2986 RMK A01 T01350126  RH  094%=      5-min Rain = 0
KVP1 241205Z 19010KT 14/13 A2986 RMK A01 T01350126  RH  094%=      5-min Rain = 0
KVP1 241206Z 19010KT 14/13 A2986 RMK A01 T01350126  RH  094%=      5-min Rain = 0
KVP1 241207Z 19010KT 14/13 A2986 RMK A01 T01360126  RH  094%=      5-min Rain = 0
KVP1 241208Z 19010KT 14/13 A2986 RMK A01 T01360126  RH  094%=      5-min Rain = 0
KVP1 241209Z 19010KT 14/13 A2986 RMK A01 T01360126  RH  094%=      5-min Rain = 0
KVP1 241210Z 19010KT 14/13 A2986 RMK A01 T01360126  RH  094%=      5-min Rain = 0
KVP1 241211Z 19009KT 14/13 A2986 RMK A01 T01360125  RH  093%=      5-min Rain = 0
KVP1 241212Z 19010KT 14/13 A2986 RMK A01 T01360126  RH  094%=      5-min Rain = 0
KVP1 241213Z 19009KT 14/13 A2986 RMK A01 T01360126  RH  094%=      5-min Rain = 0
KVP1 241214Z 19010KT 14/13 A2986 RMK A01 T01360126  RH  094%=      5-min Rain = 0
KVP1 241215Z 19010KT 14/13 A2986 RMK A01 T01360126  RH  094%=      5-min Rain = 0
KVP1 241216Z 19010KT 14/13 A2986 RMK A01 T01370126  RH  093%=      5-min Rain = 0
KVP1 241217Z 19010KT 14/13 A2986 RMK A01 T01370126  RH  093%=      5-min Rain = 0
KVP1 241218Z 19009KT 14/13 A2986 RMK A01 T01370126  RH  093%=      5-min Rain = 0
KVP1 241219Z 19009KT 14/13 A2986 RMK A01 T01380127  RH  093%=      5-min Rain = 0
KVP1 241220Z 19010KT 14/13 A2986 RMK A01 T01380127  RH  093%=      5-min Rain = 0
KVP1 241221Z 19010KT 14/13 A2986 RMK A01 T01380127  RH  093%=      5-min Rain = 0
KVP1 241222Z 19010KT 14/13 A2986 RMK A01 T01390127  RH  092%=      5-min Rain = 0
KVP1 241223Z 19010KT 14/13 A2986 RMK A01 T01400127  RH  092%=      5-min Rain = 0
KVP1 241224Z 19010KT 14/13 A2986 RMK A01 T01400127  RH  092%=      5-min Rain = 0
KVP1 241225Z 19010KT 14/13 A2986 RMK A01 T01410127  RH  092%=      5-min Rain = 0
KVP1 241226Z 19009KT 14/13 A2986 RMK A01 T01410128  RH  092%=      5-min Rain = 0
KVP1 241227Z 19010KT 14/13 A2986 RMK A01 T01410127  RH  091%=      5-min Rain = 0
KVP1 241228Z 19009KT 14/13 A2986 RMK A01 T01420127  RH  091%=      5-min Rain = 0
KVP1 241229Z 19010KT 14/13 A2986 RMK A01 T01420127  RH  091%=      5-min Rain = 0
KVP1 241230Z 19010KT 14/13 A2986 RMK A01 T01430127  RH  090%=      5-min Rain = 0
KVP1 241231Z 19010KT 14/13 A2986 RMK A01 T01430127  RH  090%=      5-min Rain = 0
KVP1 241232Z 19011KT 14/13 A2986 RMK A01 T01430127  RH  090%=      5-min Rain = 0
KVP1 241233Z 19010KT 14/13 A2986 RMK A01 T01430127  RH  090%=      5-min Rain = 0
KVP1 241234Z 19010KT 14/13 A2986 RMK A01 T01430126  RH  090%=      5-min Rain = 0
KVP1 241235Z 19010KT 14/13 A2986 RMK A01 T01430127  RH  090%=      5-min Rain = 0
KVP1 241236Z 19010KT 14/13 A2986 RMK A01 T01420127  RH  090%=      5-min Rain = 0
KVP1 241237Z 19010KT 14/13 A2986 RMK A01 T01420127  RH  091%=      5-min Rain = 0
KVP1 241238Z 19010KT 14/13 A2986 RMK A01 T01420127  RH  091%=      5-min Rain = 0
KVP1 241239Z 19010KT 14/13 A2986 RMK A01 T01420127  RH  091%=      5-min Rain = 0
KVP1 241240Z 19009KT 14/13 A2986 RMK A01 T01420127  RH  091%=      5-min Rain = 0
KVP1 241241Z 18010KT 14/13 A2986 RMK A01 T01420127  RH  090%=      5-min Rain = 0
KVP1 241242Z 19009KT 14/13 A2986 RMK A01 T01430127  RH  090%=      5-min Rain = 0
KVP1 241243Z 19010KT 14/13 A2986 RMK A01 T01430127  RH  090%=      5-min Rain = 0
KVP1 241244Z 19011KT 14/13 A2986 RMK A01 T01430126  RH  090%=      5-min Rain = 0
KVP1 241245Z 19009KT 14/13 A2986 RMK A01 T01430126  RH  090%=      5-min Rain = 0
KVP1 241246Z 19010KT 14/13 A2986 RMK A01 T01430127  RH  090%=      5-min Rain = 0
KVP1 241247Z 19011KT 14/13 A2985 RMK A01 T01430126  RH  089%=      5-min Rain = 0
KVP1 241248Z 19010KT 14/13 A2985 RMK A01 T01440126  RH  089%=      5-min Rain = 0
KVP1 241249Z 19010KT 14/13 A2985 RMK A01 T01440126  RH  089%=      5-min Rain = 0
KVP1 241250Z 19010KT 15/13 A2985 RMK A01 T01450126  RH  089%=      5-min Rain = 0
KVP1 241251Z 19011KT 15/13 A2985 RMK A01 T01460127  RH  088%=      5-min Rain = 0
KVP1 241252Z 19009KT 15/13 A2985 RMK A01 T01470128  RH  088%=      5-min Rain = 0
KVP1 241253Z 19011KT 15/13 A2985 RMK A01 T01470128  RH  088%=      5-min Rain = 0
KVP1 241254Z 19011KT 15/13 A2985 RMK A01 T01470127  RH  088%=      5-min Rain = 0
KVP1 241255Z 19011KT 15/13 A2985 RMK A01 T01480127  RH  087%=      5-min Rain = 0
KVP1 241256Z 19010KT 15/13 A2985 RMK A01 T01490127  RH  087%=      5-min Rain = 0
KVP1 241257Z 19010KT 15/13 A2985 RMK A01 T01500129  RH  088%=      5-min Rain = 0
KVP1 241258Z 19010KT 15/13 A2985 RMK A01 T01510129  RH  087%=      5-min Rain = 0
KVP1 241259Z 20011KT 15/13 A2985 RMK A01 T01530130  RH  086%=      5-min Rain = 0
KVP1 241300Z 20011KT 15/13 A2985 RMK A01 T01540130  RH  085%=      5-min Rain = 0
KVP1 241301Z 20011KT 16/13 A2985 RMK A01 T01560130  RH  085%=      5-min Rain = 0
KVP1 241302Z 20011KT 16/13 A2985 RMK A01 T01570130  RH  084%=      5-min Rain = 0
KVP1 241303Z 19010KT 16/13 A2985 RMK A01 T01580131  RH  084%=      5-min Rain = 0
KVP1 241304Z 20011KT 16/13 A2985 RMK A01 T01590132  RH  084%=      5-min Rain = 0
KVP1 241305Z 20010KT 16/13 A2985 RMK A01 T01600132  RH  083%=      5-min Rain = 0
KVP1 241306Z 20010KT 16/13 A2985 RMK A01 T01610131  RH  082%=      5-min Rain = 0
KVP1 241307Z 20011KT 16/13 A2985 RMK A01 T01620132  RH  082%=      5-min Rain = 0
KVP1 241308Z 20012KT 16/13 A2985 RMK A01 T01630132  RH  082%=      5-min Rain = 0
KVP1 241309Z 20012KT 17/13 A2985 RMK A01 T01650131  RH  081%=      5-min Rain = 0
KVP1 241310Z 20013KT 17/13 A2985 RMK A01 T01650130  RH  080%=      5-min Rain = 0
KVP1 241311Z 20012KT 17/13 A2985 RMK A01 T01660131  RH  080%=      5-min Rain = 0
KVP1 241312Z 20012KT 17/13 A2985 RMK A01 T01670131  RH  079%=      5-min Rain = 0
KVP1 241313Z 20012KT 17/13 A2985 RMK A01 T01690131  RH  078%=      5-min Rain = 0
KVP1 241314Z 20013KT 17/13 A2985 RMK A01 T01690130  RH  078%=      5-min Rain = 0
KVP1 241315Z 20012KT 17/13 A2985 RMK A01 T01700130  RH  077%=      5-min Rain = 0
KVP1 241316Z 20012KT 17/13 A2985 RMK A01 T01710131  RH  078%=      5-min Rain = 0
KVP1 241317Z 20014KT 17/13 A2985 RMK A01 T01720130  RH  076%=      5-min Rain = 0
KVP1 241318Z 20013KT 17/13 A2985 RMK A01 T01720130  RH  076%=      5-min Rain = 0
KVP1 241319Z 20014KT 17/13 A2985 RMK A01 T01730129  RH  075%=      5-min Rain = 0
KVP1 241320Z 20013KT 17/13 A2985 RMK A01 T01720129  RH  076%=      5-min Rain = 0
KVP1 241321Z 20014KT 17/13 A2985 RMK A01 T01730129  RH  075%=      5-min Rain = 0
KVP1 241322Z 20013KT 17/13 A2985 RMK A01 T01730129  RH  075%=      5-min Rain = 0
KVP1 241323Z 20015KT 17/13 A2985 RMK A01 T01740129  RH  075%=      5-min Rain = 0
KVP1 241324Z 20014KT 17/13 A2985 RMK A01 T01740128  RH  074%=      5-min Rain = 0
KVP1 241325Z 20013KT 17/13 A2985 RMK A01 T01740129  RH  075%=      5-min Rain = 0
KVP1 241326Z 20015KT 18/13 A2985 RMK A01 T01750130  RH  075%=      5-min Rain = 0
KVP1 241327Z 20013KT 18/13 A2985 RMK A01 T01770129  RH  074%=      5-min Rain = 0
KVP1 241328Z 20015KT 18/13 A2985 RMK A01 T01770130  RH  074%=      5-min Rain = 0
KVP1 241329Z 20014KT 18/13 A2985 RMK A01 T01780129  RH  073%=      5-min Rain = 0
KVP1 241330Z 20013KT 18/13 A2985 RMK A01 T01780129  RH  073%=      5-min Rain = 0
KVP1 241331Z 19012KT 18/13 A2985 RMK A01 T01790132  RH  074%=      5-min Rain = 0
KVP1 241332Z 20013G18KT 18/13 A2985 RMK A01 T01810133  RH  073%=      5-min Rain = 0
KVP1 241333Z 19013KT 18/13 A2985 RMK A01 T01820131  RH  072%=      5-min Rain = 0
KVP1 241334Z 19013KT 18/13 A2985 RMK A01 T01820132  RH  072%=      5-min Rain = 0
KVP1 241335Z 20013KT 18/13 A2985 RMK A01 T01830131  RH  072%=      5-min Rain = 0
KVP1 241336Z 20015KT 18/13 A2985 RMK A01 T01840132  RH  072%=      5-min Rain = 0
KVP1 241337Z 20015KT 18/13 A2985 RMK A01 T01840130  RH  070%=      5-min Rain = 0
KVP1 241338Z 20014KT 19/13 A2985 RMK A01 T01850130  RH  071%=      5-min Rain = 0
KVP1 241339Z 20015KT 19/13 A2985 RMK A01 T01850131  RH  071%=      5-min Rain = 0
KVP1 241340Z 20013KT 19/13 A2985 RMK A01 T01860132  RH  071%=      5-min Rain = 0
KVP1 241341Z 20013KT 19/13 A2985 RMK A01 T01870133  RH  071%=      5-min Rain = 0
KVP1 241342Z 20014KT 19/13 A2985 RMK A01 T01880133  RH  070%=      5-min Rain = 0
KVP1 241343Z 19015KT 19/13 A2985 RMK A01 T01890133  RH  070%=      5-min Rain = 0
KVP1 241344Z 20015KT 19/13 A2985 RMK A01 T01890132  RH  069%=      5-min Rain = 0
KVP1 241345Z 19015KT 19/13 A2985 RMK A01 T01900132  RH  069%=      5-min Rain = 0
KVP1 241346Z 19015KT 19/13 A2985 RMK A01 T01910133  RH  069%=      5-min Rain = 0
KVP1 241347Z 19018KT 19/13 A2985 RMK A01 T01920133  RH  068%=      5-min Rain = 0
KVP1 241348Z 20017G23KT 19/13 A2985 RMK A01 T01930133  RH  068%=      5-min Rain = 0
KVP1 241349Z 19020KT 19/13 A2985 RMK A01 T01930132  RH  067%=      5-min Rain = 0
KVP1 241350Z 19019KT 19/13 A2985 RMK A01 T01930131  RH  067%=      5-min Rain = 0
KVP1 241351Z 19017KT 19/13 A2985 RMK A01 T01930132  RH  068%=      5-min Rain = 0
KVP1 241352Z 19017KT 19/13 A2985 RMK A01 T01930132  RH  068%=      5-min Rain = 0
KVP1 241353Z 20017KT 19/13 A2985 RMK A01 T01940134  RH  068%=      5-min Rain = 0
KVP1 241354Z 20015G20KT 19/13 A2985 RMK A01 T01940134  RH  068%=      5-min Rain = 0
KVP1 241355Z 20014KT 20/14 A2985 RMK A01 T01960135  RH  068%=      5-min Rain = 0
KVP1 241356Z 20017KT 20/14 A2985 RMK A01 T01980135  RH  067%=      5-min Rain = 0
KVP1 241357Z 19013KT 20/13 A2985 RMK A01 T01980134  RH  067%=      5-min Rain = 0
KVP1 241358Z 20017KT 20/14 A2985 RMK A01 T01990136  RH  067%=      5-min Rain = 0
KVP1 241359Z 20017KT 20/13 A2985 RMK A01 T01990133  RH  066%=      5-min Rain = 0
KVP1 241400Z 19019KT 20/13 A2985 RMK A01 T01990133  RH  066%=      5-min Rain = 0
KVP1 241401Z 20018KT 20/13 A2985 RMK A01 T01980134  RH  066%=      5-min Rain = 0
KVP1 241402Z 19020KT 20/13 A2985 RMK A01 T01980133  RH  066%=      5-min Rain = 0
KVP1 241403Z 19018KT 20/13 A2985 RMK A01 T01980134  RH  066%=      5-min Rain = 0
KVP1 241404Z 19019KT 20/13 A2985 RMK A01 T01990133  RH  066%=      5-min Rain = 0
KVP1 241405Z 19018KT 20/13 A2985 RMK A01 T01980134  RH  066%=      5-min Rain = 0
KVP1 241406Z 19018KT 20/14 A2985 RMK A01 T01990135  RH  066%=      5-min Rain = 0
KVP1 241407Z 20014KT 20/14 A2985 RMK A01 T02000135  RH  066%=      5-min Rain = 0
KVP1 241408Z 19017KT 20/14 A2985 RMK A01 T02020137  RH  066%=      5-min Rain = 0
KVP1 241409Z 19019KT 20/14 A2985 RMK A01 T02030136  RH  065%=      5-min Rain = 0
KVP1 241410Z 19018KT 20/14 A2985 RMK A01 T02030136  RH  065%=      5-min Rain = 0
KVP1 241411Z 20018KT 20/14 A2985 RMK A01 T02030136  RH  065%=      5-min Rain = 0
KVP1 241412Z 19019KT 20/14 A2985 RMK A01 T02030136  RH  065%=      5-min Rain = 0
KVP1 241413Z 19017KT 20/14 A2985 RMK A01 T02030137  RH  066%=      5-min Rain = 0
KVP1 241414Z 20016KT 20/14 A2985 RMK A01 T02040137  RH  065%=      5-min Rain = 0
KVP1 241415Z 21017KT 21/14 A2985 RMK A01 T02050138  RH  065%=      5-min Rain = 0
KVP1 241416Z 20013G18KT 21/14 A2985 RMK A01 T02060139  RH  065%=      5-min Rain = 0
KVP1 241417Z 20014KT 21/14 A2985 RMK A01 T02080142  RH  066%=      5-min Rain = 0
KVP1 241418Z 20014KT 21/14 A2985 RMK A01 T02110141  RH  064%=      5-min Rain = 0
KVP1 241419Z 19016KT 21/14 A2985 RMK A01 T02130141  RH  064%=      5-min Rain = 0
KVP1 241420Z 20017KT 21/14 A2985 RMK A01 T02130139  RH  063%=      5-min Rain = 0
KVP1 241421Z 20019KT 21/14 A2985 RMK A01 T02120139  RH  063%=      5-min Rain = 0
KVP1 241422Z 19018KT 21/14 A2985 RMK A01 T02110139  RH  063%=      5-min Rain = 0
KVP1 241423Z 19016KT 21/14 A2985 RMK A01 T02100139  RH  064%=      5-min Rain = 0
KVP1 241424Z 20018KT 21/14 A2985 RMK A01 T02110140  RH  064%=      5-min Rain = 0
KVP1 241425Z 20018KT 21/14 A2985 RMK A01 T02120140  RH  063%=      5-min Rain = 0
KVP1 241426Z 20018KT 21/14 A2985 RMK A01 T02130139  RH  063%=      5-min Rain = 0
KVP1 241427Z 20017KT 21/14 A2985 RMK A01 T02130140  RH  063%=      5-min Rain = 0
KVP1 241428Z 20016KT 21/14 A2985 RMK A01 T02130141  RH  063%=      5-min Rain = 0
KVP1 241429Z 20015KT 21/14 A2985 RMK A01 T02140141  RH  063%=      5-min Rain = 0
KVP1 241430Z 20015KT 22/14 A2985 RMK A01 T02150142  RH  063%=      5-min Rain = 0
KVP1 241431Z 20018KT 22/14 A2985 RMK A01 T02170141  RH  062%=      5-min Rain = 0
KVP1 241432Z 20019KT 22/14 A2985 RMK A01 T02170139  RH  061%=      5-min Rain = 0
KVP1 241433Z 19018KT 22/14 A2985 RMK A01 T02160139  RH  062%=      5-min Rain = 0
KVP1 241434Z 21016KT 22/14 A2985 RMK A01 T02170141  RH  062%=      5-min Rain = 0
KVP1 241435Z 20015KT 22/14 A2985 RMK A01 T02190144  RH  062%=      5-min Rain = 0
KVP1 241436Z 20013KT 22/14 A2985 RMK A01 T02220143  RH  061%=      5-min Rain = 0
KVP1 241437Z 20016G21KT 22/14 A2985 RMK A01 T02240144  RH  061%=      5-min Rain = 0
KVP1 241438Z 20016KT 23/14 A2985 RMK A01 T02250144  RH  060%=      5-min Rain = 0
KVP1 241439Z 20017KT 23/14 A2984 RMK A01 T02250142  RH  059%=      5-min Rain = 0
KVP1 241440Z 20017G22KT 22/14 A2984 RMK A01 T02240142  RH  060%=      5-min Rain = 0
KVP1 241441Z 20018KT 22/14 A2984 RMK A01 T02230141  RH  060%=      5-min Rain = 0
KVP1 241442Z 20015KT 22/14 A2985 RMK A01 T02220142  RH  060%=      5-min Rain = 0
KVP1 241443Z 20018KT 22/14 A2985 RMK A01 T02220143  RH  061%=      5-min Rain = 0
KVP1 241444Z 20018G23KT 22/14 A2985 RMK A01 T02230140  RH  059%=      5-min Rain = 0
KVP1 241445Z 21018KT 22/14 A2985 RMK A01 T02230142  RH  060%=      5-min Rain = 0
KVP1 241446Z 21020KT 22/14 A2985 RMK A01 T02240141  RH  059%=      5-min Rain = 0
KVP1 241447Z 21019KT 22/14 A2985 RMK A01 T02240139  RH  059%=      5-min Rain = 0
KVP1 241448Z 20019KT 22/14 A2985 RMK A01 T02220140  RH  060%=      5-min Rain = 0
KVP1 241449Z 20020KT 22/14 A2985 RMK A01 T02230140  RH  060%=      5-min Rain = 0
KVP1 241450Z 20019KT 22/14 A2985 RMK A01 T02230140  RH  059%=      5-min Rain = 0
KVP1 241451Z 20020KT 22/14 A2984 RMK A01 T02230139  RH  059%=      5-min Rain = 0
KVP1 241452Z 21021KT 22/14 A2984 RMK A01 T02230140  RH  059%=      5-min Rain = 0
KVP1 241453Z 20019G24KT 22/14 A2984 RMK A01 T02230140  RH  059%=      5-min Rain = 0
KVP1 241454Z 20018G23KT 22/14 A2984 RMK A01 T02230141  RH  060%=      5-min Rain = 0
KVP1 241455Z 20019KT 22/14 A2985 RMK A01 T02240141  RH  059%=      5-min Rain = 0
KVP1 241456Z 20020KT 23/14 A2984 RMK A01 T02250140  RH  059%=      5-min Rain = 0
KVP1 241457Z 20019KT 23/14 A2985 RMK A01 T02250141  RH  059%=      5-min Rain = 0
KVP1 241458Z 20021KT 23/14 A2985 RMK A01 T02250141  RH  059%=      5-min Rain = 0
KVP1 241459Z 20018KT 23/14 A2985 RMK A01 T02260140  RH  059%=      5-min Rain = 0
KVP1 241500Z 21017KT 23/14 A2985 RMK A01 T02260142  RH  059%=      5-min Rain = 0
KVP1 241501Z 20018G23KT 23/14 A2985 RMK A01 T02270144  RH  060%=      5-min Rain = 0
KVP1 241502Z 20019KT 23/14 A2985 RMK A01 T02280142  RH  058%=      5-min Rain = 0
KVP1 241503Z 20017KT 23/14 A2985 RMK A01 T02280144  RH  059%=      5-min Rain = 0
KVP1 241504Z 19018G23KT 23/14 A2985 RMK A01 T02290144  RH  059%=      5-min Rain = 0
KVP1 241505Z 21019KT 23/14 A2985 RMK A01 T02300143  RH  058%=      5-min Rain = 0
KVP1 241506Z 21023KT 23/14 A2984 RMK A01 T02300143  RH  058%=      5-min Rain = 0
KVP1 241507Z 20018G23KT 23/14 A2985 RMK A01 T02300141  RH  057%=      5-min Rain = 0
KVP1 241508Z 19015KT 23/14 A2985 RMK A01 T02290144  RH  059%=      5-min Rain = 0
KVP1 241509Z 20017G23KT 23/15 A2984 RMK A01 T02320146  RH  058%=      5-min Rain = 0
KVP1 241510Z 20017G22KT 23/14 A2984 RMK A01 T02330144  RH  057%=      5-min Rain = 0
KVP1 241511Z 20018G23KT 23/15 A2984 RMK A01 T02330145  RH  057%=      5-min Rain = 0
KVP1 241512Z 19019G25KT 23/14 A2985 RMK A01 T02330144  RH  057%=      5-min Rain = 0
KVP1 241513Z 20022KT 23/14 A2984 RMK A01 T02330143  RH  057%=      5-min Rain = 0
KVP1 241514Z 20021KT 23/14 A2984 RMK A01 T02330142  RH  057%=      5-min Rain = 0
KVP1 241515Z 20019G24KT 23/14 A2984 RMK A01 T02320143  RH  057%=      5-min Rain = 0
KVP1 241516Z 21021KT 23/14 A2984 RMK A01 T02320142  RH  057%=      5-min Rain = 0
KVP1 241517Z 20016G21KT 23/14 A2984 RMK A01 T02320143  RH  057%=      5-min Rain = 0
KVP1 241518Z 20017KT 23/15 A2984 RMK A01 T02340145  RH  057%=      5-min Rain = 0
KVP1 241519Z 20017KT 24/14 A2984 RMK A01 T02360144  RH  056%=      5-min Rain = 0
KVP1 241520Z 20019KT 24/15 A2984 RMK A01 T02360145  RH  057%=      5-min Rain = 0
KVP1 241521Z 21017KT 24/14 A2984 RMK A01 T02360144  RH  056%=      5-min Rain = 0
KVP1 241522Z 20021KT 24/14 A2984 RMK A01 T02360144  RH  056%=      5-min Rain = 0
KVP1 241523Z 21018G23KT 24/14 A2984 RMK A01 T02360144  RH  056%=      5-min Rain = 0
KVP1 241524Z 21018KT 24/14 A2984 RMK A01 T02370143  RH  056%=      5-min Rain = 0
KVP1 241525Z 20018G23KT 24/15 A2984 RMK A01 T02380145  RH  056%=      5-min Rain = 0
KVP1 241526Z 20020KT 24/14 A2984 RMK A01 T02380143  RH  055%=      5-min Rain = 0
KVP1 241527Z 20020KT 24/14 A2984 RMK A01 T02370143  RH  056%=      5-min Rain = 0
KVP1 241528Z 20020KT 24/14 A2984 RMK A01 T02370144  RH  056%=      5-min Rain = 0
KVP1 241529Z 21017KT 24/15 A2984 RMK A01 T02380145  RH  056%=      5-min Rain = 0
KVP1 241530Z 21019G24KT 24/15 A2984 RMK A01 T02400145  RH  055%=      5-min Rain = 0
KVP1 241531Z 21021KT 24/14 A2984 RMK A01 T02410144  RH  055%=      5-min Rain = 0
KVP1 241532Z 21020G25KT 24/14 A2984 RMK A01 T02400144  RH  055%=      5-min Rain = 0
KVP1 241533Z 21017KT 24/14 A2984 RMK A01 T02390144  RH  055%=      5-min Rain = 0
KVP1 241534Z 22018G24KT 24/15 A2984 RMK A01 T02410146  RH  055%=      5-min Rain = 0
KVP1 241535Z 21019KT 24/15 A2984 RMK A01 T02430145  RH  054%=      5-min Rain = 0
KVP1 241536Z 22020KT 24/14 A2984 RMK A01 T02430144  RH  054%=      5-min Rain = 0
KVP1 241537Z 21018KT 24/14 A2984 RMK A01 T02420143  RH  054%=      5-min Rain = 0
KVP1 241538Z 21020G25KT 24/14 A2984 RMK A01 T02410144  RH  054%=      5-min Rain = 0
KVP1 241539Z 20021KT 24/14 A2984 RMK A01 T02420143  RH  054%=      5-min Rain = 0
KVP1 241540Z 21017G22KT 24/15 A2984 RMK A01 T02420145  RH  054%=      5-min Rain = 0
KVP1 241541Z 22016KT 24/15 A2984 RMK A01 T02420145  RH  055%=      5-min Rain = 0
KVP1 241542Z 21017KT 24/15 A2984 RMK A01 T02430146  RH  055%=      5-min Rain = 0
KVP1 241543Z 20016KT 24/15 A2984 RMK A01 T02440147  RH  055%=      5-min Rain = 0
KVP1 241544Z 20017KT 25/15 A2984 RMK A01 T02460147  RH  054%=      5-min Rain = 0
KVP1 241545Z 21018KT 25/15 A2984 RMK A01 T02460146  RH  053%=      5-min Rain = 0
KVP1 241546Z 20020KT 25/15 A2984 RMK A01 T02450146  RH  054%=      5-min Rain = 0
KVP1 241547Z 21019KT 24/15 A2984 RMK A01 T02440146  RH  054%=      5-min Rain = 0
KVP1 241548Z 21018KT 24/15 A2984 RMK A01 T02440147  RH  055%=      5-min Rain = 0
KVP1 241549Z 20018KT 25/15 A2984 RMK A01 T02460148  RH  054%=      5-min Rain = 0
KVP1 241550Z 21018G26KT 25/15 A2984 RMK A01 T02480148  RH  054%=      5-min Rain = 0
KVP1 241551Z 21019KT 25/15 A2984 RMK A01 T02490146  RH  052%=      5-min Rain = 0
KVP1 241552Z 22019KT 25/14 A2984 RMK A01 T02500144  RH  051%=      5-min Rain = 0
KVP1 241553Z 22021KT 25/14 A2984 RMK A01 T02510143  RH  051%=      5-min Rain = 0
KVP1 241554Z 21021KT 25/14 A2984 RMK A01 T02490143  RH  051%=      5-min Rain = 0
KVP1 241555Z 21021KT 25/14 A2984 RMK A01 T02480142  RH  052%=      5-min Rain = 0
KVP1 241556Z 21021G27KT 25/14 A2984 RMK A01 T02470143  RH  052%=      5-min Rain = 0
KVP1 241557Z 22020G25KT 25/14 A2984 RMK A01 T02470142  RH  052%=      5-min Rain = 0
KVP1 241558Z 22020KT 25/14 A2984 RMK A01 T02470143  RH  052%=      5-min Rain = 0
KVP1 241559Z 22018KT 25/14 A2984 RMK A01 T02470142  RH  052%=      5-min Rain = 0
KVP1 241600Z 22017KT 25/14 A2984 RMK A01 T02480144  RH  052%=      5-min Rain = 0
KVP1 241601Z 21014G19KT 25/15 A2984 RMK A01 T02500146  RH  052%=      5-min Rain = 0
KVP1 241602Z 21017KT 25/15 A2984 RMK A01 T02530146  RH  052%=      5-min Rain = 0
KVP1 241603Z 21017KT 25/15 A2984 RMK A01 T02530145  RH  051%=      5-min Rain = 0
KVP1 241604Z 21016KT 25/15 A2984 RMK A01 T02520146  RH  052%=      5-min Rain = 0
KVP1 241605Z 21016KT 25/14 A2984 RMK A01 T02520144  RH  051%=      5-min Rain = 0
KVP1 241606Z 20017KT 25/15 A2984 RMK A01 T02530146  RH  052%=      5-min Rain = 0
KVP1 241607Z 20019KT 25/15 A2984 RMK A01 T02540145  RH  051%=      5-min Rain = 0
KVP1 241608Z 21016G21KT 25/15 A2984 RMK A01 T02540146  RH  051%=      5-min Rain = 0
KVP1 241609Z 21016KT 25/15 A2984 RMK A01 T02540147  RH  051%=      5-min Rain = 0
KVP1 241610Z 21015KT 25/15 A2984 RMK A01 T02540148  RH  052%=      5-min Rain = 0
KVP1 241611Z 21017G22KT 26/15 A2984 RMK A01 T02550148  RH  051%=      5-min Rain = 0
KVP1 241612Z 22016KT 26/15 A2984 RMK A01 T02570146  RH  050%=      5-min Rain = 0
KVP1 241613Z 22019G24KT 26/15 A2984 RMK A01 T02570145  RH  050%=      5-min Rain = 0
KVP1 241614Z 22018G23KT 26/15 A2984 RMK A01 T02560145  RH  050%=      5-min Rain = 0
KVP1 241615Z 21018KT 25/15 A2984 RMK A01 T02540145  RH  051%=      5-min Rain = 0
KVP1 241616Z 22018KT 25/15 A2984 RMK A01 T02540145  RH  051%=      5-min Rain = 0
KVP1 241617Z 23019KT 25/14 A2984 RMK A01 T02530144  RH  051%=      5-min Rain = 0
KVP1 241618Z 23016G22KT 25/14 A2984 RMK A01 T02530144  RH  051%=      5-min Rain = 0
KVP1 241619Z 23015G20KT 26/14 A2985 RMK A01 T02560142  RH  050%=      5-min Rain = 0
KVP1 241620Z 23013KT 26/14 A2984 RMK A01 T02570142  RH  049%=      5-min Rain = 0
KVP1 241621Z 22016KT 26/15 A2985 RMK A01 T02570146  RH  050%=      5-min Rain = 0
KVP1 241622Z 21015G20KT 26/15 A2985 RMK A01 T02580148  RH  051%=      5-min Rain = 0
KVP1 241623Z 22019KT 26/15 A2985 RMK A01 T02610146  RH  049%=      5-min Rain = 0
KVP1 241624Z 21015KT 26/15 A2985 RMK A01 T02590145  RH  049%=      5-min Rain = 0
KVP1 241625Z 22013KT 26/15 A2985 RMK A01 T02560146  RH  051%=      5-min Rain = 0
KVP1 241626Z 21015KT 26/15 A2985 RMK A01 T02560148  RH  051%=      5-min Rain = 0
KVP1 241627Z 21015KT 26/15 A2985 RMK A01 T02580147  RH  050%=      5-min Rain = 0
KVP1 241628Z 22017KT 26/15 A2985 RMK A01 T02600146  RH  049%=      5-min Rain = 0
KVP1 241629Z 24018KT 26/14 A2985 RMK A01 T02590144  RH  049%=      5-min Rain = 0
KVP1 241630Z 23016KT 26/14 A2985 RMK A01 T02580143  RH  049%=      5-min Rain = 0
KVP1 241631Z 22017G23KT 26/15 A2985 RMK A01 T02590145  RH  049%=      5-min Rain = 0
KVP1 241632Z 21012KT 26/14 A2985 RMK A01 T02590144  RH  049%=      5-min Rain = 0
KVP1 241633Z 22013KT 26/15 A2985 RMK A01 T02620148  RH  049%=      5-min Rain = 0
KVP1 241634Z 21012KT 26/15 A2985 RMK A01 T02630146  RH  048%=      5-min Rain = 0
KVP1 241635Z 21014G21KT 26/15 A2985 RMK A01 T02620148  RH  049%=      5-min Rain = 0
KVP1 241636Z 21017KT 26/15 A2985 RMK A01 T02640146  RH  048%=      5-min Rain = 0
KVP1 241637Z 21016KT 26/15 A2985 RMK A01 T02620145  RH  049%=      5-min Rain = 0
KVP1 241638Z 20016KT 26/15 A2985 RMK A01 T02610145  RH  049%=      5-min Rain = 0
KVP1 241639Z 21015KT 26/15 A2985 RMK A01 T02610146  RH  049%=      5-min Rain = 0
KVP1 241640Z 21017KT 26/15 A2985 RMK A01 T02620146  RH  049%=      5-min Rain = 0
KVP1 241641Z 21013KT 26/15 A2985 RMK A01 T02600147  RH  050%=      5-min Rain = 0
KVP1 241642Z 22018KT 26/15 A2985 RMK A01 T02600145  RH  049%=      5-min Rain = 0
KVP1 241643Z 22016KT 26/14 A2985 RMK A01 T02610141  RH  048%=      5-min Rain = 0
KVP1 241644Z 22014KT 26/15 A2985 RMK A01 T02620145  RH  048%=      5-min Rain = 0
KVP1 241645Z 21017G22KT 26/15 A2985 RMK A01 T02640145  RH  048%=      5-min Rain = 0
KVP1 241646Z 21016KT 26/15 A2985 RMK A01 T02640145  RH  048%=      5-min Rain = 0
KVP1 241647Z 21017KT 26/15 A2985 RMK A01 T02630147  RH  049%=      5-min Rain = 0
KVP1 241648Z 22017KT 26/14 A2985 RMK A01 T02640144  RH  048%=      5-min Rain = 0
KVP1 241649Z 21011KT 26/14 A2985 RMK A01 T02640143  RH  047%=      5-min Rain = 0
KVP1 241650Z 20013KT 26/15 A2985 RMK A01 T02640145  RH  048%=      5-min Rain = 0
KVP1 241651Z 20014G20KT 27/15 A2985 RMK A01 T02660146  RH  048%=      5-min Rain = 0
KVP1 241652Z 20015KT 27/15 A2985 RMK A01 T02710146  RH  046%=      5-min Rain = 0
KVP1 241653Z 21017KT 27/15 A2985 RMK A01 T02710146  RH  046%=      5-min Rain = 0
KVP1 241654Z 21013G18KT 27/14 A2985 RMK A01 T02710144  RH  046%=      5-min Rain = 0
KVP1 241655Z 22017G22KT 27/15 A2985 RMK A01 T02730145  RH  046%=      5-min Rain = 0
KVP1 241656Z 23014KT 27/14 A2985 RMK A01 T02740142  RH  044%=      5-min Rain = 0
KVP1 241657Z 21016KT 27/15 A2985 RMK A01 T02720145  RH  046%=      5-min Rain = 0
KVP1 241658Z 22015KT 27/14 A2985 RMK A01 T02690143  RH  046%=      5-min Rain = 0
KVP1 241659Z 20016KT 27/15 A2985 RMK A01 T02680145  RH  047%=      5-min Rain = 0
KVP1 241700Z 21013KT 27/15 A2985 RMK A01 T02690148  RH  047%=      5-min Rain = 0
KVP1 241701Z 19012KT 28/15 A2984 RMK A01 T02750151  RH  047%=      5-min Rain = 0
KVP1 241702Z 20014G19KT 28/15 A2984 RMK A01 T02760149  RH  046%=      5-min Rain = 0
KVP1 241703Z 20014KT 27/15 A2984 RMK A01 T02740146  RH  046%=      5-min Rain = 0
KVP1 241704Z 20018KT 27/15 A2984 RMK A01 T02730145  RH  045%=      5-min Rain = 0
KVP1 241705Z 20017KT 27/14 A2984 RMK A01 T02730144  RH  045%=      5-min Rain = 0
KVP1 241706Z 21014KT 27/14 A2984 RMK A01 T02730144  RH  045%=      5-min Rain = 0
KVP1 241707Z 20015KT 27/15 A2984 RMK A01 T02730145  RH  046%=      5-min Rain = 0
KVP1 241708Z 21017KT 27/15 A2984 RMK A01 T02730147  RH  046%=      5-min Rain = 0
KVP1 241709Z 21015KT 27/15 A2984 RMK A01 T02720147  RH  046%=      5-min Rain = 0
KVP1 241710Z 21016KT 27/15 A2984 RMK A01 T02710146  RH  046%=      5-min Rain = 0
KVP1 241711Z 22017KT 27/14 A2984 RMK A01 T02720140  RH  044%=      5-min Rain = 0
KVP1 241712Z 21014KT 27/14 A2984 RMK A01 T02730139  RH  044%=      5-min Rain = 0
KVP1 241713Z 22012KT 27/14 A2984 RMK A01 T02730139  RH  044%=      5-min Rain = 0
KVP1 241714Z 20012KT 28/14 A2984 RMK A01 T02750143  RH  044%=      5-min Rain = 0
KVP1 241715Z 20015KT 28/14 A2984 RMK A01 T02780144  RH  044%=      5-min Rain = 0
KVP1 241716Z 24013KT 28/14 A2985 RMK A01 T02790142  RH  043%=      5-min Rain = 0
KVP1 241717Z 23010G16KT 28/14 A2985 RMK A01 T02770144  RH  044%=      5-min Rain = 0
KVP1 241718Z 20012KT 28/15 A2985 RMK A01 T02790150  RH  045%=      5-min Rain = 0
KVP1 241719Z 22015KT 28/15 A2985 RMK A01 T02820146  RH  043%=      5-min Rain = 0
KVP1 241720Z 20013KT 28/15 A2985 RMK A01 T02820146  RH  044%=      5-min Rain = 0
KVP1 241721Z 20013KT 28/15 A2985 RMK A01 T02810147  RH  044%=      5-min Rain = 0
KVP1 241722Z 20011KT 28/14 A2984 RMK A01 T02800144  RH  043%=      5-min Rain = 0
KVP1 241723Z 19013KT 28/14 A2984 RMK A01 T02780144  RH  044%=      5-min Rain = 0
KVP1 241724Z 22012KT 28/14 A2984 RMK A01 T02790140  RH  042%=      5-min Rain = 0
KVP1 241725Z 21010KT 28/14 A2984 RMK A01 T02790137  RH  042%=      5-min Rain = 0
KVP1 241726Z 20012G17KT 28/14 A2984 RMK A01 T02800142  RH  043%=      5-min Rain = 0
KVP1 241727Z 21012KT 28/14 A2984 RMK A01 T02840141  RH  042%=      5-min Rain = 0
KVP1 241728Z 20013KT 28/14 A2984 RMK A01 T02840141  RH  042%=      5-min Rain = 0
KVP1 241729Z 22015KT 28/14 A2984 RMK A01 T02820139  RH  041%=      5-min Rain = 0
KVP1 241730Z 21012G18KT 28/14 A2984 RMK A01 T02810141  RH  042%=      5-min Rain = 0
KVP1 241731Z 20013G18KT 28/14 A2984 RMK A01 T02840143  RH  042%=      5-min Rain = 0
KVP1 241732Z 19014KT 28/14 A2984 RMK A01 T02840142  RH  042%=      5-min Rain = 0
KVP1 241733Z 19013G19KT 28/14 A2984 RMK A01 T02830142  RH  042%=      5-min Rain = 0
KVP1 241734Z 19013KT 28/14 A2984 RMK A01 T02820144  RH  043%=      5-min Rain = 0
KVP1 241735Z 20017KT 29/15 A2984 RMK A01 T02860145  RH  042%=      5-min Rain = 0
KVP1 241736Z 20013KT 29/14 A2984 RMK A01 T02880144  RH  041%=      5-min Rain = 0
KVP1 241737Z 20013G18KT 29/14 A2984 RMK A01 T02870142  RH  041%=      5-min Rain = 0
KVP1 241738Z 20015KT 28/14 A2984 RMK A01 T02840141  RH  042%=      5-min Rain = 0
KVP1 241739Z 20014KT 28/14 A2984 RMK A01 T02820143  RH  043%=      5-min Rain = 0
KVP1 241740Z 19013KT 28/15 A2984 RMK A01 T02820146  RH  043%=      5-min Rain = 0
KVP1 241741Z 21015KT 29/15 A2984 RMK A01 T02870146  RH  042%=      5-min Rain = 0
KVP1 241742Z 22013KT 29/14 A2984 RMK A01 T02870139  RH  040%=      5-min Rain = 0
KVP1 241743Z 22008KT 28/14 A2984 RMK A01 T02830141  RH  042%=      5-min Rain = 0
KVP1 241744Z 20013KT 28/14 A2984 RMK A01 T02820143  RH  042%=      5-min Rain = 0
KVP1 241745Z 19012G17KT 28/14 A2984 RMK A01 T02830141  RH  042%=      5-min Rain = 0
KVP1 241746Z 19010KT 28/14 A2984 RMK A01 T02830141  RH  042%=      5-min Rain = 0
KVP1 241747Z 19012KT 28/14 A2984 RMK A01 T02830141  RH  042%=      5-min Rain = 0
KVP1 241748Z 21014KT 29/14 A2984 RMK A01 T02860144  RH  042%=      5-min Rain = 0
KVP1 241749Z 21015KT 29/14 A2984 RMK A01 T02900138  RH  039%=      5-min Rain = 0
KVP1 241750Z 23010KT 29/14 A2984 RMK A01 T02880138  RH  040%=      5-min Rain = 0
KVP1 241751Z 23010KT 29/14 A2984 RMK A01 T02860140  RH  041%=      5-min Rain = 0
KVP1 241752Z 20011KT 29/14 A2984 RMK A01 T02890140  RH  040%=      5-min Rain = 0
KVP1 241753Z 20010KT 29/14 A2984 RMK A01 T02890142  RH  040%=      5-min Rain = 0
KVP1 241754Z 19009KT 29/14 A2984 RMK A01 T02880143  RH  041%=      5-min Rain = 0
KVP1 241755Z 20014KT 29/14 A2984 RMK A01 T02880141  RH  040%=      5-min Rain = 0
KVP1 241756Z 20015KT 29/14 A2984 RMK A01 T02880140  RH  040%=      5-min Rain = 0
KVP1 241757Z 20011KT 29/14 A2984 RMK A01 T02890141  RH  040%=      5-min Rain = 0
KVP1 241758Z 22012KT 29/14 A2984 RMK A01 T02910140  RH  040%=      5-min Rain = 0
KVP1 241759Z 23011KT 29/14 A2984 RMK A01 T02900139  RH  040%=      5-min Rain = 0
KVP1 241800Z 23011KT 29/14 A2984 RMK A01 T02870138  RH  040%=      5-min Rain = 0
KVP1 241801Z 24011KT 29/14 A2984 RMK A01 T02860137  RH  040%=      5-min Rain = 0
KVP1 241802Z 20013KT 29/14 A2984 RMK A01 T02890142  RH  041%=      5-min Rain = 0
KVP1 241803Z 19011G16KT 29/14 A2984 RMK A01 T02900141  RH  040%=      5-min Rain = 0
KVP1 241804Z 19011KT 29/14 A2984 RMK A01 T02880141  RH  041%=      5-min Rain = 0
KVP1 241805Z 20012KT 29/14 A2984 RMK A01 T02880142  RH  041%=      5-min Rain = 0
KVP1 241806Z 18009KT 29/14 A2984 RMK A01 T02900143  RH  041%=      5-min Rain = 0
KVP1 241807Z 19015KT 29/14 A2983 RMK A01 T02920143  RH  040%=      5-min Rain = 0
KVP1 241808Z 19016KT 29/14 A2983 RMK A01 T02910142  RH  040%=      5-min Rain = 0
KVP1 241809Z 19013KT 29/14 A2983 RMK A01 T02920142  RH  040%=      5-min Rain = 0
KVP1 241810Z 19014KT 29/14 A2983 RMK A01 T02930143  RH  040%=      5-min Rain = 0
KVP1 241811Z 18011KT 29/14 A2983 RMK A01 T02940141  RH  039%=      5-min Rain = 0
KVP1 241812Z 18009KT 29/14 A2983 RMK A01 T02900140  RH  040%=      5-min Rain = 0
KVP1 241813Z 19010KT 29/15 A2983 RMK A01 T02890145  RH  041%=      5-min Rain = 0
KVP1 241814Z 22010G17KT 30/14 A2983 RMK A01 T02960142  RH  039%=      5-min Rain = 0
KVP1 241815Z 21013G19KT 30/14 A2983 RMK A01 T02970139  RH  038%=      5-min Rain = 0
KVP1 241816Z 20011KT 30/14 A2983 RMK A01 T02980138  RH  038%=      5-min Rain = 0
KVP1 241817Z 21013KT 30/14 A2983 RMK A01 T02980138  RH  038%=      5-min Rain = 0
KVP1 241818Z 21013KT 30/14 A2983 RMK A01 T02970135  RH  037%=      5-min Rain = 0
KVP1 241819Z 22013KT 30/13 A2983 RMK A01 T02950133  RH  037%=      5-min Rain = 0
KVP1 241820Z 20015G20KT 29/13 A2983 RMK A01 T02930134  RH  038%=      5-min Rain = 0
KVP1 241821Z 19017KT 29/14 A2983 RMK A01 T02930138  RH  039%=      5-min Rain = 0
KVP1 241822Z 19013KT 29/14 A2983 RMK A01 T02920135  RH  038%=      5-min Rain = 0
KVP1 241823Z 19009KT 29/14 A2983 RMK A01 T02910138  RH  039%=      5-min Rain = 0
KVP1 241824Z 20008KT 29/14 A2983 RMK A01 T02930139  RH  039%=      5-min Rain = 0
KVP1 241825Z 20011KT 30/14 A2983 RMK A01 T02950141  RH  039%=      5-min Rain = 0
KVP1 241826Z 23010KT 30/13 A2983 RMK A01 T02980134  RH  037%=      5-min Rain = 0
KVP1 241827Z 20013KT 30/13 A2983 RMK A01 T02970134  RH  037%=      5-min Rain = 0
KVP1 241828Z 19010KT 29/13 A2983 RMK A01 T02940132  RH  037%=      5-min Rain = 0
KVP1 241829Z 20010KT 29/14 A2983 RMK A01 T02920135  RH  038%=      5-min Rain = 0
KVP1 241830Z 19007KT 29/14 A2983 RMK A01 T02910135  RH  038%=      5-min Rain = 0
KVP1 241831Z 19014KT 29/14 A2983 RMK A01 T02920136  RH  038%=      5-min Rain = 0
KVP1 241832Z 20015KT 29/13 A2983 RMK A01 T02940134  RH  037%=      5-min Rain = 0
KVP1 241833Z 21014KT 30/14 A2983 RMK A01 T02950135  RH  037%=      5-min Rain = 0
KVP1 241834Z 20011G16KT 30/14 A2983 RMK A01 T02950136  RH  038%=      5-min Rain = 0
KVP1 241835Z 19008KT 30/14 A2983 RMK A01 T02950136  RH  038%=      5-min Rain = 0
KVP1 241836Z 19012G17KT 30/14 A2983 RMK A01 T02960136  RH  038%=      5-min Rain = 0
KVP1 241837Z 19011KT 30/14 A2983 RMK A01 T03000138  RH  037%=      5-min Rain = 0
KVP1 241838Z 19011KT 31/14 A2983 RMK A01 T03050139  RH  036%=      5-min Rain = 0
KVP1 241839Z 21010KT 31/13 A2983 RMK A01 T03080134  RH  035%=      5-min Rain = 0
KVP1 241840Z 21012KT 31/14 A2983 RMK A01 T03070138  RH  036%=      5-min Rain = 0
KVP1 241841Z 20013KT 31/14 A2983 RMK A01 T03090141  RH  036%=      5-min Rain = 0
KVP1 241842Z 19014KT 31/14 A2983 RMK A01 T03100139  RH  035%=      5-min Rain = 0
KVP1 241843Z 19011KT 31/14 A2983 RMK A01 T03060138  RH  036%=      5-min Rain = 0
KVP1 241844Z 19008KT 30/13 A2983 RMK A01 T03010134  RH  036%=      5-min Rain = 0
KVP1 241845Z 20006KT 30/13 A2983 RMK A01 T02960134  RH  037%=      5-min Rain = 0
KVP1 241846Z 22009KT 29/13 A2983 RMK A01 T02940134  RH  037%=      5-min Rain = 0
KVP1 241847Z 24008KT 30/13 A2983 RMK A01 T02970127  RH  035%=      5-min Rain = 0
KVP1 241848Z 20009KT 30/13 A2983 RMK A01 T02980127  RH  035%=      5-min Rain = 0
KVP1 241849Z 20009KT 30/13 A2983 RMK A01 T02980130  RH  036%=      5-min Rain = 0
KVP1 241850Z 20006G11KT 30/13 A2982 RMK A01 T02970130  RH  036%=      5-min Rain = 0
KVP1 241851Z 20009KT 30/13 A2982 RMK A01 T02970132  RH  036%=      5-min Rain = 0
KVP1 241852Z 20010KT 30/13 A2982 RMK A01 T02980134  RH  037%=      5-min Rain = 0
KVP1 241853Z 22013KT 30/14 A2982 RMK A01 T03010135  RH  036%=      5-min Rain = 0
KVP1 241854Z 21012KT 30/13 A2982 RMK A01 T03020132  RH  035%=      5-min Rain = 0
KVP1 241855Z 21007KT 30/13 A2982 RMK A01 T03020129  RH  035%=      5-min Rain = 0
KVP1 241856Z 21006KT 30/13 A2982 RMK A01 T03010127  RH  034%=      5-min Rain = 0
KVP1 241857Z 21007KT 30/13 A2982 RMK A01 T02990128  RH  035%=      5-min Rain = 0
KVP1 241858Z 23010KT 30/13 A2982 RMK A01 T03010132  RH  035%=      5-min Rain = 0
KVP1 241859Z 21011KT 30/13 A2982 RMK A01 T03040130  RH  034%=      5-min Rain = 0
KVP1 241900Z 20010G16KT 30/12 A2982 RMK A01 T03040124  RH  033%=      5-min Rain = 0
KVP1 241901Z 20011KT 30/12 A2982 RMK A01 T03020121  RH  033%=      5-min Rain = 0
KVP1 241902Z 18009KT 30/12 A2982 RMK A01 T03010121  RH  033%=      5-min Rain = 0
KVP1 241903Z 20010KT 30/12 A2982 RMK A01 T03040118  RH  032%=      5-min Rain = 0
KVP1 241904Z 19007KT 31/11 A2982 RMK A01 T03050111  RH  030%=      5-min Rain = 0
KVP1 241905Z 22008KT 31/12 A2982 RMK A01 T03060119  RH  032%=      5-min Rain = 0
KVP1 241906Z 18008KT 31/12 A2982 RMK A01 T03060118  RH  031%=      5-min Rain = 0
KVP1 241907Z 18009KT 30/12 A2982 RMK A01 T03040121  RH  032%=      5-min Rain = 0
KVP1 241908Z 18008G14KT 30/12 A2982 RMK A01 T03020122  RH  033%=      5-min Rain = 0
KVP1 241909Z 20013KT 30/12 A2981 RMK A01 T03030121  RH  033%=      5-min Rain = 0
KVP1 241910Z 22012KT 31/12 A2982 RMK A01 T03050119  RH  032%=      5-min Rain = 0
KVP1 241911Z 21012KT 30/12 A2982 RMK A01 T03040117  RH  032%=      5-min Rain = 0
KVP1 241912Z 21009KT 30/12 A2982 RMK A01 T03020119  RH  032%=      5-min Rain = 0
KVP1 241913Z 20006KT 30/11 A2982 RMK A01 T03030113  RH  031%=      5-min Rain = 0
KVP1 241914Z 19011G16KT 30/12 A2981 RMK A01 T03040119  RH  032%=      5-min Rain = 0
KVP1 241915Z 19010KT 31/12 A2982 RMK A01 T03080120  RH  031%=      5-min Rain = 0
KVP1 241916Z 18005KT 31/11 A2982 RMK A01 T03090111  RH  029%=      5-min Rain = 0
KVP1 241917Z 18012KT 31/12 A2981 RMK A01 T03070117  RH  031%=      5-min Rain = 0
KVP1 241918Z 19015KT 31/11 A2981 RMK A01 T03090114  RH  030%=      5-min Rain = 0
KVP1 241919Z 20013KT 31/12 A2981 RMK A01 T03090117  RH  031%=      5-min Rain = 0
KVP1 241920Z 23012KT 31/12 A2981 RMK A01 T03090119  RH  031%=      5-min Rain = 0
KVP1 241921Z 23009KT 31/12 A2981 RMK A01 T03070118  RH  031%=      5-min Rain = 0
KVP1 241922Z 24005KT 31/12 A2981 RMK A01 T03060118  RH  031%=      5-min Rain = 0
KVP1 241923Z 23005KT 31/12 A2981 RMK A01 T03090121  RH  032%=      5-min Rain = 0
KVP1 241924Z 17007KT 31/13 A2981 RMK A01 T03110125  RH  032%=      5-min Rain = 0
KVP1 241925Z 17010KT 31/12 A2981 RMK A01 T03110122  RH  031%=      5-min Rain = 0
KVP1 241926Z 17008KT 31/12 A2981 RMK A01 T03080120  RH  031%=      5-min Rain = 0
KVP1 241927Z 18007G12KT 31/11 A2981 RMK A01 T03080113  RH  030%=      5-min Rain = 0
KVP1 241928Z 20013KT 31/10 A2981 RMK A01 T03100103  RH  028%=      5-min Rain = 0
KVP1 241929Z 19014KT 31/11 A2981 RMK A01 T03110105  RH  028%=      5-min Rain = 0
KVP1 241930Z 18013KT 31/11 A2981 RMK A01 T03090109  RH  029%=      5-min Rain = 0
KVP1 241931Z 20009KT 31/11 A2981 RMK A01 T03100108  RH  029%=      5-min Rain = 0
KVP1 241932Z 17010KT 32/11 A2981 RMK A01 T03150113  RH  029%=      5-min Rain = 0
KVP1 241933Z 18012KT 32/11 A2981 RMK A01 T03180113  RH  028%=      5-min Rain = 0
KVP1 241934Z 17009KT 32/11 A2981 RMK A01 T03180105  RH  027%=      5-min Rain = 0
KVP1 241935Z 16008G13KT 31/10 A2981 RMK A01 T03140102  RH  027%=      5-min Rain = 0
KVP1 241936Z 17014KT 31/11 A298 RMK A01 T03140110  RH  029%=      5-min Rain = 0
KVP1 241937Z 18015KT 32/10 A298 RMK A01 T03160102  RH  027%=      5-min Rain = 0
KVP1 241938Z 18012G17KT 31/10 A2981 RMK A01 T03140104  RH  027%=      5-min Rain = 0
KVP1 241939Z 17011KT 31/10 A2981 RMK A01 T03110103  RH  028%=      5-min Rain = 0
KVP1 241940Z 14003KT 31/10 A298 RMK A01 T03080100  RH  027%=      5-min Rain = 0
KVP1 241941Z 16004KT 31/10 A298 RMK A01 T03070101  RH  028%=      5-min Rain = 0
KVP1 241942Z 18009G14KT 31/11 A298 RMK A01 T03070108  RH  029%=      5-min Rain = 0
KVP1 241943Z 20010KT 31/11 A298 RMK A01 T03120108  RH  028%=      5-min Rain = 0
KVP1 241944Z 20011KT 32/10 A298 RMK A01 T03150103  RH  027%=      5-min Rain = 0
KVP1 241945Z 19014KT 31/11 A298 RMK A01 T03140109  RH  028%=      5-min Rain = 0
KVP1 241946Z 18015KT 32/10 A298 RMK A01 T03160104  RH  027%=      5-min Rain = 0
KVP1 241947Z 19009KT 31/10 A298 RMK A01 T03130100  RH  027%=      5-min Rain = 0
KVP1 241948Z 19007KT 31/10 A298 RMK A01 T03100100  RH  027%=      5-min Rain = 0
KVP1 241949Z 19009KT 31/10 A298 RMK A01 T03090099  RH  027%=      5-min Rain = 0
KVP1 241950Z 16009KT 31/10 A298 RMK A01 T03110097  RH  027%=      5-min Rain = 0
KVP1 241951Z 14008KT 31/09 A298 RMK A01 T03120090  RH  025%=      5-min Rain = 0
KVP1 241952Z 17008G13KT 31/10 A298 RMK A01 T03100096  RH  027%=      5-min Rain = 0
KVP1 241953Z 18011KT 32/09 A298 RMK A01 T03150090  RH  025%=      5-min Rain = 0
KVP1 241954Z 18012KT 32/08 A298 RMK A01 T03160077  RH  023%=      5-min Rain = 0
KVP1 241955Z 18011KT 32/07 A298 RMK A01 T03160071  RH  022%=      5-min Rain = 0
KVP1 241956Z 19011KT 32/08 A298 RMK A01 T03150077  RH  023%=      5-min Rain = 0
KVP1 241957Z 19007KT 32/08 A298 RMK A01 T03150080  RH  023%=      5-min Rain = 0
KVP1 241958Z 21005KT 31/08 A298 RMK A01 T03130078  RH  023%=      5-min Rain = 0
KVP1 241959Z 20010G16KT 32/09 A2979 RMK A01 T03150085  RH  024%=      5-min Rain = 0
KVP1 242000Z 18014KT 32/08 A298 RMK A01 T03180084  RH  023%=      5-min Rain = 0
KVP1 242001Z 20014KT 32/08 A298 RMK A01 T03180080  RH  023%=      5-min Rain = 0
KVP1 242002Z 18012KT 32/08 A298 RMK A01 T03170080  RH  023%=      5-min Rain = 0
KVP1 242003Z 18011KT 32/07 A298 RMK A01 T03170074  RH  022%=      5-min Rain = 0
KVP1 242004Z 19008KT 32/08 A298 RMK A01 T03160075  RH  022%=      5-min Rain = 0
KVP1 242005Z 17009KT 31/08 A298 RMK A01 T03140084  RH  024%=      5-min Rain = 0
KVP1 242006Z 16007KT 32/09 A298 RMK A01 T03150090  RH  025%=      5-min Rain = 0
KVP1 242007Z 16007KT 31/09 A298 RMK A01 T03110087  RH  025%=      5-min Rain = 0
KVP1 242008Z 14008KT 31/09 A2979 RMK A01 T03140093  RH  025%=      5-min Rain = 0
KVP1 242009Z 14005KT 32/09 A2979 RMK A01 T03160090  RH  025%=      5-min Rain = 0
KVP1 242010Z 16006G14KT 31/10 A2979 RMK A01 T03140101  RH  027%=      5-min Rain = 0
KVP1 242011Z 16011KT 31/11 A2979 RMK A01 T03140110  RH  028%=      5-min Rain = 0
KVP1 242012Z 17009KT 31/11 A2979 RMK A01 T03120113  RH  030%=      5-min Rain = 0
KVP1 242013Z 17009KT 31/12 A2979 RMK A01 T03110120  RH  031%=      5-min Rain = 0
KVP1 242014Z 19011KT 32/12 A2979 RMK A01 T03150119  RH  030%=      5-min Rain = 0
KVP1 242015Z 20009KT 31/12 A2979 RMK A01 T03140117  RH  030%=      5-min Rain = 0
KVP1 242016Z 18007KT 31/12 A2979 RMK A01 T03130117  RH  030%=      5-min Rain = 0
KVP1 242017Z 16008KT 31/12 A2979 RMK A01 T03140120  RH  031%=      5-min Rain = 0
KVP1 242018Z 20010G15KT 32/12 A2979 RMK A01 T03160118  RH  030%=      5-min Rain = 0
KVP1 242019Z 20013KT 32/11 A2979 RMK A01 T03180111  RH  028%=      5-min Rain = 0
KVP1 242020Z 21011KT 32/11 A2979 RMK A01 T03160114  RH  029%=      5-min Rain = 0
KVP1 242021Z 17013KT 32/12 A2979 RMK A01 T03160121  RH  030%=      5-min Rain = 0
KVP1 242022Z 17010KT 32/12 A2979 RMK A01 T03180118  RH  029%=      5-min Rain = 0
KVP1 242023Z 18009KT 32/11 A2979 RMK A01 T03160113  RH  029%=      5-min Rain = 0
KVP1 242024Z 17005KT 31/11 A2979 RMK A01 T03110108  RH  029%=      5-min Rain = 0
KVP1 242025Z 20005KT 31/11 A2979 RMK A01 T03070108  RH  029%=      5-min Rain = 0
KVP1 242026Z 21006KT 31/11 A2979 RMK A01 T03070112  RH  030%=      5-min Rain = 0
KVP1 242027Z 18008KT 31/12 A2979 RMK A01 T03070117  RH  031%=      5-min Rain = 0
KVP1 242028Z 18009KT 31/12 A2979 RMK A01 T03130122  RH  031%=      5-min Rain = 0
KVP1 242029Z 18009G14KT 32/12 A2979 RMK A01 T03150117  RH  030%=      5-min Rain = 0
KVP1 242030Z 16009KT 31/11 A2979 RMK A01 T03120112  RH  029%=      5-min Rain = 0
KVP1 242031Z 16007KT 31/12 A2978 RMK A01 T03110116  RH  030%=      5-min Rain = 0
KVP1 242032Z 16009KT 31/13 A2978 RMK A01 T03110125  RH  032%=      5-min Rain = 0
KVP1 242033Z 17010KT 31/13 A2978 RMK A01 T03140125  RH  032%=      5-min Rain = 0
KVP1 242034Z 15010KT 32/13 A2978 RMK A01 T03150131  RH  033%=      5-min Rain = 0
KVP1 242035Z 13007KT 32/13 A2978 RMK A01 T03180134  RH  033%=      5-min Rain = 0
KVP1 242036Z 17009KT 32/13 A2978 RMK A01 T03230132  RH  031%=      5-min Rain = 0
KVP1 242037Z 18012KT 33/12 A2978 RMK A01 T03260121  RH  029%=      5-min Rain = 0
KVP1 242038Z 19011KT 33/12 A2978 RMK A01 T03260116  RH  028%=      5-min Rain = 0
KVP1 242039Z 18006KT 32/11 A2978 RMK A01 T03220112  RH  028%=      5-min Rain = 0
KVP1 242040Z 16010G17KT 32/12 A2978 RMK A01 T03180120  RH  030%=      5-min Rain = 0
KVP1 242041Z 18014KT 32/12 A2978 RMK A01 T03180122  RH  030%=      5-min Rain = 0
KVP1 242042Z 18013KT 32/12 A2978 RMK A01 T03180122  RH  030%=      5-min Rain = 0
KVP1 242043Z 16014KT 32/12 A2978 RMK A01 T03200119  RH  029%=      5-min Rain = 0
KVP1 242044Z 16010KT 32/12 A2978 RMK A01 T03180117  RH  029%=      5-min Rain = 0
KVP1 242045Z 18013KT 32/12 A2978 RMK A01 T03170120  RH  030%=      5-min Rain = 0
KVP1 242046Z 18009G14KT 32/12 A2978 RMK A01 T03170115  RH  029%=      5-min Rain = 0
KVP1 242047Z 18007KT 32/11 A2978 RMK A01 T03160114  RH  029%=      5-min Rain = 0
KVP1 242048Z 16006KT 32/12 A2978 RMK A01 T03160122  RH  031%=      5-min Rain = 0
KVP1 242049Z 18004KT 32/12 A2978 RMK A01 T03180119  RH  030%=      5-min Rain = 0
KVP1 242050Z 16009KT 32/12 A2977 RMK A01 T03190121  RH  030%=      5-min Rain = 0
KVP1 242051Z 17007KT 32/13 A2977 RMK A01 T03160125  RH  031%=      5-min Rain = 0
KVP1 242052Z 16009KT 32/13 A2977 RMK A01 T03150133  RH  033%=      5-min Rain = 0
KVP1 242053Z 17011G16KT 32/14 A2977 RMK A01 T03150143  RH  035%=      5-min Rain = 0
KVP1 242054Z 17013KT 32/13 A2977 RMK A01 T03170132  RH  033%=      5-min Rain = 0
KVP1 242055Z 15012KT 31/13 A2977 RMK A01 T03140127  RH  032%=      5-min Rain = 0
KVP1 242056Z 15012KT 31/13 A2977 RMK A01 T03120128  RH  033%=      5-min Rain = 0
KVP1 242057Z 15012KT 31/12 A2977 RMK A01 T03120123  RH  032%=      5-min Rain = 0
KVP1 242058Z 16008KT 31/12 A2977 RMK A01 T03110123  RH  032%=      5-min Rain = 0
KVP1 242059Z 15007KT 31/13 A2977 RMK A01 T03120130  RH  033%=      5-min Rain = 0
KVP1 242100Z 15011KT 32/13 A2977 RMK A01 T03150129  RH  032%=      5-min Rain = 0
KVP1 242101Z 15010KT 32/13 A2977 RMK A01 T03180130  RH  032%=      5-min Rain = 0
KVP1 242102Z 15007KT 32/13 A2977 RMK A01 T03160127  RH  032%=      5-min Rain = 0
KVP1 242103Z 17007KT 31/13 A2977 RMK A01 T03130131  RH  033%=      5-min Rain = 0
KVP1 242104Z 16010KT 31/14 A2977 RMK A01 T03140140  RH  035%=      5-min Rain = 0
KVP1 242105Z 19012KT 32/14 A2977 RMK A01 T03170140  RH  034%=      5-min Rain = 0
KVP1 242106Z 16011KT 32/15 A2976 RMK A01 T03190146  RH  035%=      5-min Rain = 0
KVP1 242107Z 17007KT 32/14 A2976 RMK A01 T03200143  RH  034%=      5-min Rain = 0
KVP1 242108Z 20008KT 32/13 A2976 RMK A01 T03220132  RH  032%=      5-min Rain = 0
KVP1 242109Z 20009G15KT 32/13 A2976 RMK A01 T03240129  RH  031%=      5-min Rain = 0
KVP1 242110Z 19012KT 32/13 A2976 RMK A01 T03210134  RH  032%=      5-min Rain = 0
KVP1 242111Z 17013KT 32/14 A2976 RMK A01 T03200138  RH  033%=      5-min Rain = 0
KVP1 242112Z 15016KT 32/14 A2976 RMK A01 T03190140  RH  034%=      5-min Rain = 0
KVP1 242113Z 16016KT 32/14 A2976 RMK A01 T03170136  RH  033%=      5-min Rain = 0
KVP1 242114Z 17013G19KT 32/14 A2976 RMK A01 T03150137  RH  034%=      5-min Rain = 0
KVP1 242115Z 15015KT 32/14 A2976 RMK A01 T03160139  RH  034%=      5-min Rain = 0
KVP1 242116Z 15013KT 32/14 A2976 RMK A01 T03160139  RH  034%=      5-min Rain = 0
KVP1 242117Z 16013KT 32/14 A2976 RMK A01 T03160140  RH  034%=      5-min Rain = 0
KVP1 242118Z 15012KT 32/14 A2976 RMK A01 T03170139  RH  034%=      5-min Rain = 0
KVP1 242119Z 17015KT 32/14 A2976 RMK A01 T03170137  RH  034%=      5-min Rain = 0
KVP1 242120Z 19013KT 32/13 A2976 RMK A01 T03190129  RH  031%=      5-min Rain = 0
KVP1 242121Z 19017KT 32/13 A2976 RMK A01 T03210128  RH  031%=      5-min Rain = 0
KVP1 242122Z 18011G17KT 32/12 A2976 RMK A01 T03190122  RH  030%=      5-min Rain = 0
KVP1 242123Z 18009KT 31/13 A2975 RMK A01 T03140129  RH  032%=      5-min Rain = 0
KVP1 242124Z 15011KT 32/14 A2975 RMK A01 T03150139  RH  034%=      5-min Rain = 0
KVP1 242125Z 16012KT 32/14 A2975 RMK A01 T03170143  RH  035%=      5-min Rain = 0
KVP1 242126Z 14014KT 32/15 A2975 RMK A01 T03160145  RH  036%=      5-min Rain = 0
KVP1 242127Z 16014G19KT 32/14 A2975 RMK A01 T03160142  RH  035%=      5-min Rain = 0
KVP1 242128Z 16015KT 32/14 A2975 RMK A01 T03170140  RH  034%=      5-min Rain = 0
KVP1 242129Z 17015KT 32/13 A2975 RMK A01 T03180132  RH  032%=      5-min Rain = 0
KVP1 242130Z 19012KT 32/12 A2975 RMK A01 T03180124  RH  031%=      5-min Rain = 0
KVP1 242131Z 19012KT 32/13 A2975 RMK A01 T03170125  RH  031%=      5-min Rain = 0
KVP1 242132Z 19011KT 32/12 A2975 RMK A01 T03180122  RH  030%=      5-min Rain = 0
KVP1 242133Z 19010G15KT 32/12 A2975 RMK A01 T03170124  RH  031%=      5-min Rain = 0
KVP1 242134Z 17014KT 32/13 A2975 RMK A01 T03170125  RH  031%=      5-min Rain = 0
KVP1 242135Z 18010KT 32/13 A2975 RMK A01 T03160129  RH  032%=      5-min Rain = 0
KVP1 242136Z 18013KT 31/14 A2975 RMK A01 T03130135  RH  034%=      5-min Rain = 0
KVP1 242137Z 18015KT 31/14 A2975 RMK A01 T03120137  RH  034%=      5-min Rain = 0
KVP1 242138Z 16013KT 31/14 A2975 RMK A01 T03130139  RH  035%=      5-min Rain = 0
KVP1 242139Z 17015KT 31/14 A2975 RMK A01 T03140139  RH  035%=      5-min Rain = 0
KVP1 242140Z 16011KT 31/14 A2975 RMK A01 T03130140  RH  035%=      5-min Rain = 0
KVP1 242141Z 19011KT 31/14 A2975 RMK A01 T03130140  RH  035%=      5-min Rain = 0
KVP1 242142Z 20010KT 32/13 A2975 RMK A01 T03150132  RH  033%=      5-min Rain = 0
KVP1 242143Z 20009KT 32/13 A2975 RMK A01 T03170129  RH  032%=      5-min Rain = 0
KVP1 242144Z 19010G15KT 32/13 A2975 RMK A01 T03180133  RH  032%=      5-min Rain = 0
KVP1 242145Z 18016KT 32/14 A2974 RMK A01 T03180136  RH  033%=      5-min Rain = 0
KVP1 242146Z 17018KT 32/13 A2974 RMK A01 T03170134  RH  033%=      5-min Rain = 0
KVP1 242147Z 17017KT 32/13 A2974 RMK A01 T03160134  RH  033%=      5-min Rain = 0
KVP1 242148Z 18014KT 32/14 A2974 RMK A01 T03160137  RH  034%=      5-min Rain = 0
KVP1 242149Z 18015KT 32/14 A2975 RMK A01 T03190138  RH  033%=      5-min Rain = 0
KVP1 242150Z 18013KT 32/13 A2974 RMK A01 T03170131  RH  032%=      5-min Rain = 0
KVP1 242151Z 17015KT 31/13 A2974 RMK A01 T03140131  RH  033%=      5-min Rain = 0
KVP1 242152Z 17013KT 31/13 A2974 RMK A01 T03140127  RH  032%=      5-min Rain = 0
KVP1 242153Z 17014KT 31/12 A2974 RMK A01 T03100122  RH  032%=      5-min Rain = 0
KVP1 242154Z 17010KT 31/13 A2974 RMK A01 T03070126  RH  033%=      5-min Rain = 0
KVP1 242155Z 17009KT 31/13 A2974 RMK A01 T03050131  RH  035%=      5-min Rain = 0
KVP1 242156Z 18009KT 30/14 A2974 RMK A01 T03030136  RH  036%=      5-min Rain = 0
KVP1 242157Z 17009KT 31/13 A2974 RMK A01 T03050134  RH  035%=      5-min Rain = 0
KVP1 242158Z 17008KT 31/14 A2974 RMK A01 T03060138  RH  036%=      5-min Rain = 0
KVP1 242159Z 17011KT 31/14 A2974 RMK A01 T03090143  RH  036%=      5-min Rain = 0
KVP1 242200Z 17012KT 31/14 A2974 RMK A01 T03090141  RH  036%=      5-min Rain = 0
KVP1 242201Z 17013KT 31/14 A2973 RMK A01 T03070140  RH  036%=      5-min Rain = 0
KVP1 242202Z 17015KT 31/14 A2974 RMK A01 T03060137  RH  036%=      5-min Rain = 0
KVP1 242203Z 18015KT 31/14 A2974 RMK A01 T03050137  RH  036%=      5-min Rain = 0
KVP1 242204Z 17014KT 30/14 A2974 RMK A01 T03030137  RH  036%=      5-min Rain = 0
KVP1 242205Z 17013KT 30/14 A2974 RMK A01 T03000136  RH  037%=      5-min Rain = 0
KVP1 242206Z 18009KT 30/14 A2974 RMK A01 T02980138  RH  038%=      5-min Rain = 0
KVP1 242207Z 18015KT 30/14 A2974 RMK A01 T02970139  RH  038%=      5-min Rain = 0
KVP1 242208Z 18013KT 30/14 A2974 RMK A01 T02970140  RH  038%=      5-min Rain = 0
KVP1 242209Z 17013KT 30/14 A2974 RMK A01 T02970142  RH  039%=      5-min Rain = 0
KVP1 242210Z 19014KT 30/14 A2974 RMK A01 T02960141  RH  039%=      5-min Rain = 0
KVP1 242211Z 18013G18KT 30/14 A2973 RMK A01 T02970141  RH  039%=      5-min Rain = 0
KVP1 242212Z 17015KT 30/14 A2973 RMK A01 T02970140  RH  038%=      5-min Rain = 0
KVP1 242213Z 17014KT 30/14 A2973 RMK A01 T02980140  RH  038%=      5-min Rain = 0
KVP1 242214Z 18012KT 30/14 A2973 RMK A01 T02980140  RH  038%=      5-min Rain = 0
KVP1 242215Z 21014KT 30/13 A2973 RMK A01 T03000134  RH  036%=      5-min Rain = 0
KVP1 242216Z 22013KT 30/12 A2973 RMK A01 T03020120  RH  033%=      5-min Rain = 0
KVP1 242217Z 22011KT 30/11 A2973 RMK A01 T03020113  RH  031%=      5-min Rain = 0
KVP1 242218Z 23010KT 30/11 A2973 RMK A01 T03020112  RH  031%=      5-min Rain = 0
KVP1 242219Z 23009KT 30/10 A2973 RMK A01 T03020103  RH  029%=      5-min Rain = 0
KVP1 242220Z 23008KT 30/11 A2973 RMK A01 T03040112  RH  031%=      5-min Rain = 0
KVP1 242221Z 22009KT 31/12 A2973 RMK A01 T03060118  RH  032%=      5-min Rain = 0
KVP1 242222Z 23012KT 31/12 A2973 RMK A01 T03080119  RH  031%=      5-min Rain = 0
KVP1 242223Z 22012KT 31/12 A2973 RMK A01 T03100119  RH  031%=      5-min Rain = 0
KVP1 242224Z 22010KT 31/12 A2972 RMK A01 T03100124  RH  032%=      5-min Rain = 0
KVP1 242225Z 21012KT 31/14 A2972 RMK A01 T03110135  RH  034%=      5-min Rain = 0
KVP1 242226Z 21008KT 31/14 A2972 RMK A01 T03090141  RH  036%=      5-min Rain = 0
KVP1 242227Z 20010KT 31/14 A2972 RMK A01 T03090142  RH  036%=      5-min Rain = 0
KVP1 242228Z 18007KT 31/14 A2972 RMK A01 T03100141  RH  036%=      5-min Rain = 0
KVP1 242229Z 19011KT 31/14 A2972 RMK A01 T03100142  RH  036%=      5-min Rain = 0
KVP1 242230Z 18010KT 31/14 A2972 RMK A01 T03100141  RH  036%=      5-min Rain = 0
KVP1 242231Z 19007KT 31/14 A2972 RMK A01 T03080138  RH  035%=      5-min Rain = 0
KVP1 242232Z 19007KT 31/14 A2972 RMK A01 T03050139  RH  036%=      5-min Rain = 0
KVP1 242233Z 21007KT 30/14 A2972 RMK A01 T03020140  RH  037%=      5-min Rain = 0
KVP1 242234Z 21006KT 30/14 A2972 RMK A01 T02990142  RH  038%=      5-min Rain = 0
KVP1 242235Z 21005KT 30/14 A2972 RMK A01 T02950141  RH  039%=      5-min Rain = 0
KVP1 242236Z 23007G13KT 29/14 A2972 RMK A01 T02930136  RH  038%=      5-min Rain = 0
KVP1 242237Z 20011KT 29/14 A2972 RMK A01 T02910135  RH  038%=      5-min Rain = 0
KVP1 242238Z 22011KT 29/13 A2972 RMK A01 T02890126  RH  037%=      5-min Rain = 0
KVP1 242239Z 22009KT 29/12 A2972 RMK A01 T02880124  RH  036%=      5-min Rain = 0
KVP1 242240Z 22008KT 29/12 A2972 RMK A01 T02880124  RH  036%=      5-min Rain = 0
KVP1 242241Z 22008KT 29/12 A2972 RMK A01 T02870124  RH  037%=      5-min Rain = 0
KVP1 242242Z 20006KT 29/13 A2972 RMK A01 T02850126  RH  037%=      5-min Rain = 0
KVP1 242243Z 19005KT 29/13 A2972 RMK A01 T02850125  RH  037%=      5-min Rain = 0
KVP1 242244Z 20005KT 29/12 A2972 RMK A01 T02850121  RH  036%=      5-min Rain = 0
KVP1 242245Z 20005KT 28/12 A2972 RMK A01 T02840121  RH  036%=      5-min Rain = 0
KVP1 242246Z 20005KT 28/12 A2972 RMK A01 T02840121  RH  036%=      5-min Rain = 0
KVP1 242247Z 19006KT 28/12 A2972 RMK A01 T02840121  RH  036%=      5-min Rain = 0
KVP1 242248Z 20004KT 28/12 A2972 RMK A01 T02840121  RH  036%=      5-min Rain = 0
KVP1 242249Z 20003KT 28/12 A2972 RMK A01 T02840123  RH  037%=      5-min Rain = 0
KVP1 242250Z 18003KT 28/12 A2972 RMK A01 T02830122  RH  037%=      5-min Rain = 0
KVP1 242251Z 18005KT 28/13 A2972 RMK A01 T02830126  RH  038%=      5-min Rain = 0
KVP1 242252Z 18008KT 28/13 A2972 RMK A01 T02830132  RH  040%=      5-min Rain = 0
KVP1 242253Z 18007KT 28/14 A2972 RMK A01 T02830135  RH  040%=      5-min Rain = 0
KVP1 242254Z 18008KT 28/14 A2972 RMK A01 T02830135  RH  040%=      5-min Rain = 0
KVP1 242255Z 18007KT 28/14 A2972 RMK A01 T02830136  RH  041%=      5-min Rain = 0
KVP1 242256Z 18011KT 28/14 A2972 RMK A01 T02830135  RH  040%=      5-min Rain = 0
KVP1 242257Z 18010KT 28/13 A2972 RMK A01 T02820133  RH  040%=      5-min Rain = 0
KVP1 242258Z 21015KT 28/13 A2973 RMK A01 T02820130  RH  039%=      5-min Rain = 0
KVP1 242259Z 21020G26KT 28/10 A2973 RMK A01 T02820104  RH  033%=      5-min Rain = 0
KVP1 242300Z 22019G25KT 28/08 A2972 RMK A01 T02770075  RH  028%=      5-min Rain = 0
KVP1 242301Z 22017KT 27/06 A2972 RMK A01 T02720060  RH  026%=      5-min Rain = 0
KVP1 242302Z 22016KT 27/05 A2971 RMK A01 T02660052  RH  025%=      5-min Rain = 0
KVP1 242303Z 23023G33KT 26/05 A2972 RMK A01 T02610049  RH  026%=      5-min Rain = 0
KVP1 242304Z 24022G38KT 26/05 A2971 RMK A01 T02570053  RH  027%=      5-min Rain = 0
KVP1 242305Z 25030G36KT 26/05 A2971 RMK A01 T02560052  RH  027%=      5-min Rain = 0
KVP1 242306Z 25033G40KT 26/05 A2971 RMK A01 T02610046  RH  025%=      5-min Rain = 0
KVP1 242307Z 24034G41KT 26/05 A2972 RMK A01 T02640051  RH  026%=      5-min Rain = 0
KVP1 242308Z 24032G40KT 25/08 A2972 RMK A01 T02520076  RH  033%=      5-min Rain = 0
KVP1 242309Z 23032KT 23/10 A2972 RMK A01 T02290097  RH  043%=      5-min Rain = 0
KVP1 242310Z 24029G36KT 20/11 A2972 RMK A01 T02040109  RH  054%=      5-min Rain = 0.01
KVP1 242311Z 24033G38KT 19/11 A2972 RMK A01 T01870110  RH  061%=      5-min Rain = 0.01
KVP1 242312Z 24031KT 18/11 A2973 RMK A01 T01750112  RH  067%=      5-min Rain = 0.01
KVP1 242313Z 24028G34KT 17/10 A2973 RMK A01 T01720098  RH  062%=      5-min Rain = 0.01
KVP1 242314Z 25027KT 18/10 A2973 RMK A01 T01750097  RH  060%=      5-min Rain = 0.01
KVP1 242315Z 25031G36KT 18/10 A2973 RMK A01 T01750097  RH  060%=      5-min Rain = 0
KVP1 242316Z 26026KT 18/10 A2974 RMK A01 T01790095  RH  058%=      5-min Rain = 0
KVP1 242317Z 27028KT 18/09 A2973 RMK A01 T01840092  RH  055%=      5-min Rain = 0.01
KVP1 242318Z 27025KT 19/09 A2973 RMK A01 T01900089  RH  052%=      5-min Rain = 0
KVP1 242319Z 28022KT 19/09 A2973 RMK A01 T01930089  RH  051%=      5-min Rain = 0
KVP1 242320Z 29020KT 20/09 A2972 RMK A01 T01950091  RH  051%=      5-min Rain = 0
KVP1 242321Z 29019KT 20/09 A2972 RMK A01 T01960091  RH  051%=      5-min Rain = 0
KVP1 242322Z 29020KT 19/10 A2972 RMK A01 T01940097  RH  053%=      5-min Rain = 0.01
KVP1 242323Z 29020KT 19/09 A2972 RMK A01 T01930089  RH  051%=      5-min Rain = 0
KVP1 242324Z 29019G24KT 20/09 A2972 RMK A01 T01980087  RH  049%=      5-min Rain = 0
KVP1 242325Z 30017KT 20/09 A2971 RMK A01 T02000093  RH  050%=      5-min Rain = 0
KVP1 242326Z 29014KT 20/09 A2971 RMK A01 T02000094  RH  051%=      5-min Rain = 0
KVP1 242327Z 28014KT 20/10 A2971 RMK A01 T01970104  RH  055%=      5-min Rain = 0
KVP1 242328Z 28012KT 19/10 A2971 RMK A01 T01930103  RH  056%=      5-min Rain = 0
KVP1 242329Z 28012KT 19/11 A2971 RMK A01 T01910107  RH  058%=      5-min Rain = 0
KVP1 242330Z 28013KT 19/11 A2971 RMK A01 T01890111  RH  060%=      5-min Rain = 0
KVP1 242331Z 29013KT 19/11 A2971 RMK A01 T01870112  RH  062%=      5-min Rain = 0
KVP1 242332Z 29013KT 19/11 A2971 RMK A01 T01860112  RH  062%=      5-min Rain = 0
KVP1 242333Z 28011KT 19/11 A2971 RMK A01 T01860112  RH  062%=      5-min Rain = 0
KVP1 242334Z 29010KT 19/12 A297 RMK A01 T01870115  RH  063%=      5-min Rain = 0
KVP1 242335Z 30009KT 19/12 A297 RMK A01 T01870116  RH  063%=      5-min Rain = 0
KVP1 242336Z 29009KT 19/11 A2969 RMK A01 T01890108  RH  060%=      5-min Rain = 0
KVP1 242337Z 28011KT 20/11 A2969 RMK A01 T01950105  RH  056%=      5-min Rain = 0
KVP1 242338Z 28013KT 20/09 A2969 RMK A01 T02020088  RH  048%=      5-min Rain = 0
KVP1 242339Z 29013KT 21/09 A2969 RMK A01 T02090088  RH  046%=      5-min Rain = 0
KVP1 242340Z 30014KT 22/08 A2968 RMK A01 T02160079  RH  041%=      5-min Rain = 0
KVP1 242341Z 31014KT 22/09 A2969 RMK A01 T02200091  RH  044%=      5-min Rain = 0
KVP1 242342Z 30012KT 22/08 A2969 RMK A01 T02240081  RH  040%=      5-min Rain = 0
KVP1 242343Z 29012KT 23/09 A2969 RMK A01 T02280085  RH  040%=      5-min Rain = 0
KVP1 242344Z 29009KT 23/09 A297 RMK A01 T02280088  RH  041%=      5-min Rain = 0
KVP1 242345Z 29009KT 23/09 A297 RMK A01 T02280085  RH  040%=      5-min Rain = 0
KVP1 242346Z 29007KT 23/09 A297 RMK A01 T02280086  RH  040%=      5-min Rain = 0
KVP1 242347Z 29006KT 23/09 A2971 RMK A01 T02290094  RH  042%=      5-min Rain = 0
KVP1 242348Z 28006KT 23/11 A297 RMK A01 T02260107  RH  047%=      5-min Rain = 0
KVP1 242349Z 28006KT 22/11 A297 RMK A01 T02220114  RH  050%=      5-min Rain = 0
KVP1 242350Z 29006KT 22/12 A297 RMK A01 T02170116  RH  052%=      5-min Rain = 0
KVP1 242351Z 29007KT 22/12 A297 RMK A01 T02150115  RH  053%=      5-min Rain = 0
KVP1 242352Z 29006KT 21/11 A2969 RMK A01 T02140107  RH  050%=      5-min Rain = 0
KVP1 242353Z 31008KT 22/10 A2969 RMK A01 T02180095  RH  045%=      5-min Rain = 0
KVP1 242354Z 30008KT 22/10 A2969 RMK A01 T02220095  RH  044%=      5-min Rain = 0
KVP1 242355Z 28006KT 23/11 A2969 RMK A01 T02250106  RH  047%=      5-min Rain = 0
KVP1 242356Z 25007KT 22/12 A2969 RMK A01 T02230120  RH  052%=      5-min Rain = 0
KVP1 242357Z 24006KT 22/12 A2969 RMK A01 T02180120  RH  053%=      5-min Rain = 0
KVP1 242358Z 24006KT 22/11 A2969 RMK A01 T02170112  RH  051%=      5-min Rain = 0
KVP1 242359Z 25005KT 22/11 A2969 RMK A01 T02180110  RH  050%=      5-min Rain = 0
KVP1 250000Z 25004KT 22/10 A2969 RMK A01 T02200099  RH  046%=      5-min Rain = 0
KVP1 250001Z 28004KT 22/09 A2969 RMK A01 T02240087  RH  041%=      5-min Rain = 0
KVP1 250002Z 28004KT 23/08 A2969 RMK A01 T02290081  RH  039%=      5-min Rain = 0
KVP1 250003Z 28004KT 23/09 A2969 RMK A01 T02330089  RH  040%=      5-min Rain = 0
KVP1 250004Z 28003KT 23/08 A2969 RMK A01 T02340082  RH  038%=      5-min Rain = 0
KVP1 250005Z 28003KT 24/08 A2968 RMK A01 T02360078  RH  036%=      5-min Rain = 0
KVP1 250006Z 29003KT 24/07 A2968 RMK A01 T02390070  RH  034%=      5-min Rain = 0
KVP1 250007Z 29003KT 24/06 A2968 RMK A01 T02420062  RH  031%=      5-min Rain = 0
KVP1 250008Z 28004KT 25/05 A2968 RMK A01 T02460051  RH  028%=      5-min Rain = 0
KVP1 250009Z 28004KT 25/04 A2968 RMK A01 T02510043  RH  026%=      5-min Rain = 0
KVP1 250010Z 27004KT 25/04 A2968 RMK A01 T02540042  RH  025%=      5-min Rain = 0
KVP1 250011Z 26004KT 26/05 A2968 RMK A01 T02570051  RH  027%=      5-min Rain = 0
KVP1 250012Z 21005KT 26/09 A2968 RMK A01 T02550094  RH  036%=      5-min Rain = 0
KVP1 250013Z 19009KT 24/13 A2968 RMK A01 T02440128  RH  048%=      5-min Rain = 0
KVP1 250014Z 19008KT 23/13 A2968 RMK A01 T02310131  RH  053%=      5-min Rain = 0
KVP1 250015Z 19008KT 22/13 A2968 RMK A01 T02230126  RH  054%=      5-min Rain = 0
KVP1 250016Z 19007KT 22/12 A2968 RMK A01 T02180123  RH  054%=      5-min Rain = 0
KVP1 250017Z 19006KT 22/12 A2967 RMK A01 T02170121  RH  054%=      5-min Rain = 0
KVP1 250018Z 19006KT 22/12 A2968 RMK A01 T02170121  RH  055%=      5-min Rain = 0
KVP1 250019Z 19005KT 22/12 A2968 RMK A01 T02160123  RH  055%=      5-min Rain = 0
KVP1 250020Z 20005KT 22/12 A2968 RMK A01 T02160119  RH  054%=      5-min Rain = 0
KVP1 250021Z 20005KT 22/12 A2968 RMK A01 T02160118  RH  054%=      5-min Rain = 0
KVP1 250022Z 19004KT 22/12 A2968 RMK A01 T02160117  RH  053%=      5-min Rain = 0
KVP1 250023Z 19005KT 22/12 A2968 RMK A01 T02160117  RH  053%=      5-min Rain = 0
KVP1 250024Z 20004KT 22/11 A2968 RMK A01 T02160113  RH  052%=      5-min Rain = 0
KVP1 250025Z 20004KT 22/11 A2969 RMK A01 T02170112  RH  051%=      5-min Rain = 0
KVP1 250026Z 19004KT 22/11 A2969 RMK A01 T02190112  RH  050%=      5-min Rain = 0
KVP1 250027Z 18004KT 22/11 A2969 RMK A01 T02210113  RH  051%=      5-min Rain = 0
KVP1 250028Z 18003KT 22/11 A2969 RMK A01 T02210112  RH  050%=      5-min Rain = 0
KVP1 250029Z 18003KT 22/11 A2969 RMK A01 T02220114  RH  050%=      5-min Rain = 0
KVP1 250030Z 16002KT 22/12 A2969 RMK A01 T02220116  RH  051%=      5-min Rain = 0
KVP1 250031Z 15003KT 22/12 A2969 RMK A01 T02230120  RH  052%=      5-min Rain = 0
KVP1 250032Z 15003KT 22/13 A2969 RMK A01 T02240129  RH  055%=      5-min Rain = 0
KVP1 250033Z 14003KT 22/13 A2969 RMK A01 T02240132  RH  056%=      5-min Rain = 0
KVP1 250034Z 14002KT 22/13 A2969 RMK A01 T02240132  RH  056%=      5-min Rain = 0
KVP1 250035Z 13002KT 22/13 A2969 RMK A01 T02230134  RH  057%=      5-min Rain = 0
KVP1 250036Z 12002KT 22/13 A2969 RMK A01 T02230125  RH  054%=      5-min Rain = 0
KVP1 250037Z 11002KT 22/12 A2969 RMK A01 T02230118  RH  051%=      5-min Rain = 0
KVP1 250038Z 10002KT 22/12 A2969 RMK A01 T02240119  RH  051%=      5-min Rain = 0
KVP1 250039Z 09003KT 23/12 A2969 RMK A01 T02250122  RH  052%=      5-min Rain = 0
KVP1 250040Z 08004KT 23/13 A2969 RMK A01 T02250127  RH  054%=      5-min Rain = 0
KVP1 250041Z 07004KT 22/13 A2969 RMK A01 T02240133  RH  056%=      5-min Rain = 0
KVP1 250042Z 08006KT 22/14 A2969 RMK A01 T02220135  RH  058%=      5-min Rain = 0
KVP1 250043Z 07007KT 22/14 A2969 RMK A01 T02200143  RH  062%=      5-min Rain = 0
KVP1 250044Z 07007KT 22/15 A2969 RMK A01 T02180147  RH  064%=      5-min Rain = 0
KVP1 250045Z 07007KT 22/15 A2969 RMK A01 T02160147  RH  065%=      5-min Rain = 0
KVP1 250046Z 06007KT 21/14 A2969 RMK A01 T02140144  RH  064%=      5-min Rain = 0
KVP1 250047Z 06008KT 21/14 A297 RMK A01 T02120142  RH  064%=      5-min Rain = 0
KVP1 250048Z 07008KT 21/14 A297 RMK A01 T02110144  RH  065%=      5-min Rain = 0
KVP1 250049Z 08007KT 21/14 A297 RMK A01 T02100140  RH  064%=      5-min Rain = 0
KVP1 250050Z 12005KT 21/13 A2971 RMK A01 T02110132  RH  060%=      5-min Rain = 0
KVP1 250051Z 15007KT 21/14 A2971 RMK A01 T02120135  RH  061%=      5-min Rain = 0
KVP1 250052Z 12008KT 21/14 A2971 RMK A01 T02110138  RH  063%=      5-min Rain = 0
KVP1 250053Z 15010KT 21/13 A2971 RMK A01 T02090134  RH  062%=      5-min Rain = 0
KVP1 250054Z 18007KT 21/11 A2971 RMK A01 T02100107  RH  052%=      5-min Rain = 0
KVP1 250055Z 19010KT 22/09 A2971 RMK A01 T02160087  RH  043%=      5-min Rain = 0
KVP1 250056Z 19013KT 22/09 A2971 RMK A01 T02240085  RH  041%=      5-min Rain = 0
KVP1 250057Z 20010KT 23/10 A2971 RMK A01 T02260095  RH  043%=      5-min Rain = 0
KVP1 250058Z 22011KT 22/09 A297 RMK A01 T02230091  RH  043%=      5-min Rain = 0
KVP1 250059Z 21015G28KT 22/09 A297 RMK A01 T02220087  RH  042%=      5-min Rain = 0
KVP1 250100Z 19016G30KT 22/07 A297 RMK A01 T02230073  RH  038%=      5-min Rain = 0
KVP1 250101Z 20011G20KT 23/08 A2969 RMK A01 T02260077  RH  038%=      5-min Rain = 0
KVP1 250102Z 20018G25KT 23/08 A2969 RMK A01 T02250079  RH  039%=      5-min Rain = 0
KVP1 250103Z 20014KT 22/08 A2968 RMK A01 T02240078  RH  039%=      5-min Rain = 0
KVP1 250104Z 19011G17KT 22/09 A2968 RMK A01 T02210085  RH  042%=      5-min Rain = 0
KVP1 250105Z 18019G24KT 22/08 A2968 RMK A01 T02180083  RH  042%=      5-min Rain = 0
KVP1 250106Z 18015KT 22/08 A2967 RMK A01 T02170083  RH  042%=      5-min Rain = 0
KVP1 250107Z 18016KT 22/09 A2967 RMK A01 T02150086  RH  043%=      5-min Rain = 0
KVP1 250108Z 18021KT 21/08 A2967 RMK A01 T02130084  RH  043%=      5-min Rain = 0
KVP1 250109Z 17020G26KT 21/09 A2967 RMK A01 T02130087  RH  044%=      5-min Rain = 0
KVP1 250110Z 18023G28KT 21/09 A2967 RMK A01 T02120086  RH  045%=      5-min Rain = 0
KVP1 250111Z 18019KT 21/08 A2967 RMK A01 T02110084  RH  044%=      5-min Rain = 0
KVP1 250112Z 18013KT 21/09 A2967 RMK A01 T02110087  RH  045%=      5-min Rain = 0
KVP1 250113Z 18016KT 21/09 A2967 RMK A01 T02100087  RH  045%=      5-min Rain = 0
KVP1 250114Z 18010KT 21/09 A2967 RMK A01 T02100092  RH  047%=      5-min Rain = 0
KVP1 250115Z 18015G22KT 21/09 A2967 RMK A01 T02070091  RH  047%=      5-min Rain = 0
KVP1 250116Z 18022G28KT 21/08 A2967 RMK A01 T02070083  RH  045%=      5-min Rain = 0
KVP1 250117Z 18019KT 21/08 A2967 RMK A01 T02100082  RH  044%=      5-min Rain = 0
KVP1 250118Z 17015KT 21/08 A2967 RMK A01 T02110084  RH  044%=      5-min Rain = 0
KVP1 250119Z 17012KT 21/09 A2967 RMK A01 T02110087  RH  045%=      5-min Rain = 0
KVP1 250120Z 16013KT 21/09 A2967 RMK A01 T02090088  RH  046%=      5-min Rain = 0
KVP1 250121Z 16012KT 21/09 A2968 RMK A01 T02080086  RH  045%=      5-min Rain = 0
KVP1 250122Z 16009KT 21/09 A2968 RMK A01 T02080088  RH  046%=      5-min Rain = 0
KVP1 250123Z 16009KT 21/09 A2968 RMK A01 T02070088  RH  046%=      5-min Rain = 0
KVP1 250124Z 16009KT 21/09 A2968 RMK A01 T02070085  RH  046%=      5-min Rain = 0
KVP1 250125Z 16010KT 21/09 A2968 RMK A01 T02070088  RH  046%=      5-min Rain = 0
KVP1 250126Z 17013KT 21/09 A2968 RMK A01 T02070087  RH  046%=      5-min Rain = 0
KVP1 250127Z 17010KT 21/09 A2968 RMK A01 T02080089  RH  046%=      5-min Rain = 0
KVP1 250128Z 17011KT 21/09 A2968 RMK A01 T02070090  RH  047%=      5-min Rain = 0
KVP1 250129Z 17013KT 21/09 A2968 RMK A01 T02070091  RH  047%=      5-min Rain = 0
KVP1 250130Z 17013KT 21/09 A2968 RMK A01 T02060090  RH  047%=      5-min Rain = 0
KVP1 250131Z 17013KT 21/09 A2968 RMK A01 T02060090  RH  047%=      5-min Rain = 0
KVP1 250132Z 17013KT 21/08 A2968 RMK A01 T02080084  RH  045%=      5-min Rain = 0
KVP1 250133Z 16013KT 21/08 A2968 RMK A01 T02110083  RH  044%=      5-min Rain = 0
KVP1 250134Z 16011KT 21/08 A2968 RMK A01 T02130083  RH  043%=      5-min Rain = 0
KVP1 250135Z 15010KT 21/09 A2968 RMK A01 T02140087  RH  044%=      5-min Rain = 0
KVP1 250136Z 15011KT 21/09 A2967 RMK A01 T02130087  RH  044%=      5-min Rain = 0
KVP1 250137Z 15009KT 21/09 A2967 RMK A01 T02130088  RH  045%=      5-min Rain = 0
KVP1 250138Z 14010KT 21/09 A2967 RMK A01 T02130088  RH  045%=      5-min Rain = 0
KVP1 250139Z 14011KT 21/09 A2967 RMK A01 T02120088  RH  045%=      5-min Rain = 0
KVP1 250140Z 13011KT 21/09 A2967 RMK A01 T02120086  RH  044%=      5-min Rain = 0
KVP1 250141Z 13008KT 21/09 A2968 RMK A01 T02130086  RH  044%=      5-min Rain = 0
KVP1 250142Z 11007KT 21/09 A2968 RMK A01 T02110094  RH  047%=      5-min Rain = 0
KVP1 250143Z 10007KT 21/10 A2968 RMK A01 T02060099  RH  050%=      5-min Rain = 0
KVP1 250144Z 09006KT 20/10 A2968 RMK A01 T02010101  RH  052%=      5-min Rain = 0
KVP1 250145Z 09007KT 20/10 A2968 RMK A01 T01970103  RH  054%=      5-min Rain = 0
KVP1 250146Z 09008KT 20/10 A2968 RMK A01 T01950103  RH  055%=      5-min Rain = 0
KVP1 250147Z 09008KT 19/10 A2968 RMK A01 T01930102  RH  056%=      5-min Rain = 0
KVP1 250148Z 08009KT 19/10 A2968 RMK A01 T01930104  RH  057%=      5-min Rain = 0
KVP1 250149Z 09010KT 19/10 A2968 RMK A01 T01920103  RH  056%=      5-min Rain = 0
KVP1 250150Z 09011KT 19/10 A2968 RMK A01 T01920101  RH  056%=      5-min Rain = 0
KVP1 250151Z 09009KT 19/10 A2968 RMK A01 T01930100  RH  055%=      5-min Rain = 0
KVP1 250152Z 09008KT 19/10 A2969 RMK A01 T01940098  RH  054%=      5-min Rain = 0
KVP1 250153Z 08009G14KT 20/10 A2969 RMK A01 T01960097  RH  053%=      5-min Rain = 0
KVP1 250154Z 09011KT 20/10 A2969 RMK A01 T01980095  RH  051%=      5-min Rain = 0
KVP1 250155Z 08010KT 20/09 A2969 RMK A01 T02010092  RH  050%=      5-min Rain = 0
KVP1 250156Z 08010KT 20/09 A2969 RMK A01 T02030089  RH  048%=      5-min Rain = 0
KVP1 250157Z 07009KT 21/09 A2969 RMK A01 T02060092  RH  048%=      5-min Rain = 0
KVP1 250158Z 06009KT 21/10 A2969 RMK A01 T02060095  RH  049%=      5-min Rain = 0
KVP1 250159Z 09007KT 20/10 A297 RMK A01 T02040098  RH  051%=      5-min Rain = 0
KVP1 250200Z 15007KT 20/10 A297 RMK A01 T02020100  RH  052%=      5-min Rain = 0
KVP1 250201Z 16008KT 20/10 A2971 RMK A01 T02010100  RH  052%=      5-min Rain = 0
KVP1 250202Z 14005KT 20/09 A2971 RMK A01 T01990093  RH  050%=      5-min Rain = 0
KVP1 250203Z 12008KT 20/09 A2971 RMK A01 T02000092  RH  049%=      5-min Rain = 0
KVP1 250204Z 10008G13KT 20/10 A2971 RMK A01 T02020096  RH  050%=      5-min Rain = 0
KVP1 250205Z 09015KT 20/10 A2971 RMK A01 T02020097  RH  051%=      5-min Rain = 0
KVP1 250206Z 08014KT 20/09 A297 RMK A01 T02030092  RH  049%=      5-min Rain = 0
KVP1 250207Z 08016KT 21/10 A297 RMK A01 T02050095  RH  049%=      5-min Rain = 0
KVP1 250208Z 07014KT 21/09 A297 RMK A01 T02060092  RH  048%=      5-min Rain = 0
KVP1 250209Z 05011KT 21/09 A297 RMK A01 T02080092  RH  047%=      5-min Rain = 0
KVP1 250210Z 05014G19KT 21/09 A2971 RMK A01 T02090094  RH  048%=      5-min Rain = 0
KVP1 250211Z 04015KT 21/09 A2971 RMK A01 T02100089  RH  046%=      5-min Rain = 0
KVP1 250212Z 05014KT 21/10 A2971 RMK A01 T02120095  RH  047%=      5-min Rain = 0
KVP1 250213Z 06011KT 21/10 A297 RMK A01 T02100098  RH  048%=      5-min Rain = 0
KVP1 250214Z 06017G23KT 21/11 A2969 RMK A01 T02070106  RH  052%=      5-min Rain = 0
KVP1 250215Z 05018G23KT 20/10 A2969 RMK A01 T02030103  RH  052%=      5-min Rain = 0
KVP1 250216Z 05018KT 21/11 A2968 RMK A01 T02050106  RH  053%=      5-min Rain = 0
KVP1 250217Z 05018KT 20/11 A2968 RMK A01 T02030108  RH  054%=      5-min Rain = 0
KVP1 250218Z 04018KT 20/11 A2968 RMK A01 T02010109  RH  055%=      5-min Rain = 0
KVP1 250219Z 05019KT 20/11 A2967 RMK A01 T02010108  RH  055%=      5-min Rain = 0
KVP1 250220Z 05021KT 20/11 A2967 RMK A01 T02010108  RH  055%=      5-min Rain = 0
KVP1 250221Z 05017KT 20/11 A2967 RMK A01 T02000109  RH  056%=      5-min Rain = 0
KVP1 250222Z 08019KT 20/11 A2967 RMK A01 T01990107  RH  055%=      5-min Rain = 0
KVP1 250223Z 08017KT 20/10 A2968 RMK A01 T02000104  RH  054%=      5-min Rain = 0
KVP1 250224Z 08018G23KT 20/11 A2968 RMK A01 T02010105  RH  054%=      5-min Rain = 0
KVP1 250225Z 07019KT 20/11 A2968 RMK A01 T02010108  RH  055%=      5-min Rain = 0
KVP1 250226Z 07018KT 20/12 A2968 RMK A01 T01990115  RH  058%=      5-min Rain = 0
KVP1 250227Z 08019KT 20/12 A2968 RMK A01 T01950117  RH  060%=      5-min Rain = 0
KVP1 250228Z 08018KT 19/12 A2968 RMK A01 T01930117  RH  061%=      5-min Rain = 0
KVP1 250229Z 08016KT 19/12 A2969 RMK A01 T01930115  RH  061%=      5-min Rain = 0
KVP1 250230Z 09014KT 19/11 A2969 RMK A01 T01930113  RH  060%=      5-min Rain = 0
KVP1 250231Z 09013KT 19/11 A2969 RMK A01 T01930112  RH  059%=      5-min Rain = 0
KVP1 250232Z 10017KT 19/11 A2969 RMK A01 T01940112  RH  059%=      5-min Rain = 0
KVP1 250233Z 10018KT 19/11 A2969 RMK A01 T01940113  RH  059%=      5-min Rain = 0
KVP1 250234Z 10018KT 19/12 A2969 RMK A01 T01940116  RH  061%=      5-min Rain = 0
KVP1 250235Z 10016KT 19/12 A2969 RMK A01 T01930117  RH  061%=      5-min Rain = 0
KVP1 250236Z 10016KT 19/12 A2969 RMK A01 T01920116  RH  062%=      5-min Rain = 0
KVP1 250237Z 10018KT 19/12 A2969 RMK A01 T01910117  RH  062%=      5-min Rain = 0
KVP1 250238Z 10017KT 19/12 A2969 RMK A01 T01910118  RH  063%=      5-min Rain = 0
KVP1 250239Z 09016KT 19/12 A2969 RMK A01 T01900118  RH  063%=      5-min Rain = 0
KVP1 250240Z 10015KT 19/12 A2968 RMK A01 T01900117  RH  062%=      5-min Rain = 0
KVP1 250241Z 10015KT 19/11 A2968 RMK A01 T01900112  RH  060%=      5-min Rain = 0
KVP1 250242Z 09015KT 19/11 A2968 RMK A01 T01930110  RH  058%=      5-min Rain = 0
KVP1 250243Z 09017KT 20/11 A2968 RMK A01 T01950109  RH  057%=      5-min Rain = 0
KVP1 250244Z 09015KT 20/11 A2968 RMK A01 T01960110  RH  057%=      5-min Rain = 0
KVP1 250245Z 08014KT 20/11 A2968 RMK A01 T01960110  RH  058%=      5-min Rain = 0
KVP1 250246Z 08014KT 20/11 A2967 RMK A01 T01950110  RH  058%=      5-min Rain = 0
KVP1 250247Z 08014KT 20/11 A2967 RMK A01 T01950110  RH  058%=      5-min Rain = 0
KVP1 250248Z 09012KT 20/11 A2967 RMK A01 T01950110  RH  058%=      5-min Rain = 0
KVP1 250249Z 09012KT 20/11 A2968 RMK A01 T01950110  RH  058%=      5-min Rain = 0
KVP1 250250Z 09010KT 19/11 A2968 RMK A01 T01940111  RH  059%=      5-min Rain = 0
KVP1 250251Z 09011KT 19/11 A2968 RMK A01 T01940110  RH  059%=      5-min Rain = 0
KVP1 250252Z 09012KT 19/11 A2968 RMK A01 T01940108  RH  057%=      5-min Rain = 0
KVP1 250253Z 10011KT 20/11 A2968 RMK A01 T01950107  RH  057%=      5-min Rain = 0
KVP1 250254Z 09009KT 20/11 A2969 RMK A01 T01960106  RH  056%=      5-min Rain = 0
KVP1 250255Z 09009KT 20/11 A2969 RMK A01 T01970107  RH  056%=      5-min Rain = 0
KVP1 250256Z 09009KT 20/11 A2969 RMK A01 T01970106  RH  056%=      5-min Rain = 0
KVP1 250257Z 08008KT 20/11 A297 RMK A01 T01970107  RH  056%=      5-min Rain = 0
KVP1 250258Z 07008KT 20/11 A297 RMK A01 T01960107  RH  056%=      5-min Rain = 0
KVP1 250259Z 06009KT 20/11 A297 RMK A01 T01960109  RH  057%=      5-min Rain = 0
KVP1 250300Z 06012KT 20/11 A297 RMK A01 T01950111  RH  058%=      5-min Rain = 0
KVP1 250301Z 06014KT 19/11 A297 RMK A01 T01940112  RH  059%=      5-min Rain = 0
KVP1 250302Z 06012KT 19/11 A297 RMK A01 T01940113  RH  060%=      5-min Rain = 0
KVP1 250303Z 07011KT 19/12 A297 RMK A01 T01920116  RH  061%=      5-min Rain = 0
KVP1 250304Z 07012KT 19/12 A297 RMK A01 T01910117  RH  062%=      5-min Rain = 0
KVP1 250305Z 06011KT 19/12 A2971 RMK A01 T01900121  RH  064%=      5-min Rain = 0
KVP1 250306Z 06011KT 19/12 A2971 RMK A01 T01870122  RH  066%=      5-min Rain = 0
KVP1 250307Z 05011KT 19/12 A2971 RMK A01 T01850123  RH  067%=      5-min Rain = 0
KVP1 250308Z 05012KT 18/12 A2971 RMK A01 T01840124  RH  068%=      5-min Rain = 0
KVP1 250309Z 05012KT 18/13 A2971 RMK A01 T01830125  RH  069%=      5-min Rain = 0
KVP1 250310Z 06013KT 18/13 A2971 RMK A01 T01820126  RH  070%=      5-min Rain = 0
KVP1 250311Z 06014KT 18/13 A2971 RMK A01 T01800126  RH  070%=      5-min Rain = 0
KVP1 250312Z 07012KT 18/13 A2971 RMK A01 T01790127  RH  071%=      5-min Rain = 0
KVP1 250313Z 06011KT 18/13 A2971 RMK A01 T01780128  RH  072%=      5-min Rain = 0
KVP1 250314Z 06013KT 18/13 A2971 RMK A01 T01770129  RH  073%=      5-min Rain = 0
KVP1 250315Z 06013KT 18/13 A2971 RMK A01 T01750129  RH  074%=      5-min Rain = 0
KVP1 250316Z 07011KT 17/13 A2971 RMK A01 T01740129  RH  075%=      5-min Rain = 0
KVP1 250317Z 06009KT 17/13 A2971 RMK A01 T01730129  RH  076%=      5-min Rain = 0
KVP1 250318Z 06010KT 17/13 A2971 RMK A01 T01720129  RH  076%=      5-min Rain = 0
KVP1 250319Z 07012KT 17/13 A2971 RMK A01 T01720128  RH  075%=      5-min Rain = 0
KVP1 250320Z 07012KT 17/13 A2971 RMK A01 T01720126  RH  074%=      5-min Rain = 0
KVP1 250321Z 07010KT 17/13 A2971 RMK A01 T01730125  RH  074%=      5-min Rain = 0
KVP1 250322Z 06011KT 17/12 A2971 RMK A01 T01730124  RH  073%=      5-min Rain = 0
KVP1 250323Z 06013KT 17/12 A2971 RMK A01 T01740124  RH  072%=      5-min Rain = 0
KVP1 250324Z 06013KT 17/12 A2971 RMK A01 T01740122  RH  071%=      5-min Rain = 0
KVP1 250325Z 06013KT 18/12 A2971 RMK A01 T01760122  RH  071%=      5-min Rain = 0
KVP1 250326Z 06012KT 18/12 A2972 RMK A01 T01770121  RH  070%=      5-min Rain = 0
KVP1 250327Z 06011KT 18/12 A2971 RMK A01 T01770120  RH  069%=      5-min Rain = 0
KVP1 250328Z 06012G17KT 18/12 A2971 RMK A01 T01780116  RH  067%=      5-min Rain = 0
KVP1 250329Z 07012KT 18/12 A2971 RMK A01 T01800115  RH  066%=      5-min Rain = 0
KVP1 250330Z 07012KT 18/11 A2971 RMK A01 T01810114  RH  065%=      5-min Rain = 0
KVP1 250331Z 06012KT 18/12 A2971 RMK A01 T01820115  RH  065%=      5-min Rain = 0
KVP1 250332Z 06012KT 18/12 A2971 RMK A01 T01820115  RH  065%=      5-min Rain = 0
KVP1 250333Z 06012KT 18/11 A2971 RMK A01 T01820114  RH  064%=      5-min Rain = 0
KVP1 250334Z 06012KT 18/11 A2971 RMK A01 T01820113  RH  064%=      5-min Rain = 0
KVP1 250335Z 07015KT 18/11 A2971 RMK A01 T01830112  RH  063%=      5-min Rain = 0
KVP1 250336Z 06014KT 18/11 A2971 RMK A01 T01830110  RH  062%=      5-min Rain = 0
KVP1 250337Z 06015KT 18/11 A2971 RMK A01 T01830111  RH  063%=      5-min Rain = 0
KVP1 250338Z 06015KT 18/11 A2971 RMK A01 T01820112  RH  064%=      5-min Rain = 0
KVP1 250339Z 05013KT 18/11 A2971 RMK A01 T01810112  RH  064%=      5-min Rain = 0
KVP1 250340Z 05014KT 18/11 A2971 RMK A01 T01800112  RH  064%=      5-min Rain = 0
KVP1 250341Z 05015KT 18/11 A2971 RMK A01 T01800112  RH  065%=      5-min Rain = 0
KVP1 250342Z 06015KT 18/11 A2971 RMK A01 T01790112  RH  065%=      5-min Rain = 0
KVP1 250343Z 06014KT 18/11 A297 RMK A01 T01790112  RH  065%=      5-min Rain = 0
KVP1 250344Z 06014KT 18/11 A297 RMK A01 T01780113  RH  065%=      5-min Rain = 0
KVP1 250345Z 06014KT 18/11 A297 RMK A01 T01780111  RH  065%=      5-min Rain = 0
KVP1 250346Z 07015KT 18/11 A297 RMK A01 T01770110  RH  065%=      5-min Rain = 0
KVP1 250347Z 06013KT 18/11 A297 RMK A01 T01780110  RH  064%=      5-min Rain = 0
KVP1 250348Z 06012KT 18/11 A297 RMK A01 T01780111  RH  065%=      5-min Rain = 0
KVP1 250349Z 06010KT 18/11 A297 RMK A01 T01770110  RH  065%=      5-min Rain = 0
KVP1 250350Z 06012KT 18/11 A297 RMK A01 T01770111  RH  065%=      5-min Rain = 0
KVP1 250351Z 06013G18KT 18/11 A297 RMK A01 T01770110  RH  065%=      5-min Rain = 0
KVP1 250352Z 06014KT 18/11 A297 RMK A01 T01770109  RH  064%=      5-min Rain = 0
KVP1 250353Z 06016KT 18/11 A297 RMK A01 T01770109  RH  064%=      5-min Rain = 0
KVP1 250354Z 06017KT 18/11 A2969 RMK A01 T01770108  RH  064%=      5-min Rain = 0
KVP1 250355Z 06017KT 18/11 A2969 RMK A01 T01780109  RH  064%=      5-min Rain = 0
KVP1 250356Z 05016KT 18/11 A2969 RMK A01 T01770109  RH  064%=      5-min Rain = 0
KVP1 250357Z 05016KT 18/11 A2969 RMK A01 T01770110  RH  065%=      5-min Rain = 0
KVP1 250358Z 05016KT 18/11 A2969 RMK A01 T01770110  RH  065%=      5-min Rain = 0
KVP1 250359Z 05015KT 18/11 A2969 RMK A01 T01760110  RH  065%=      5-min Rain = 0
KVP1 250400Z 05015KT 18/11 A2969 RMK A01 T01760110  RH  065%=      5-min Rain = 0
KVP1 250401Z 05014KT 18/11 A2969 RMK A01 T01760110  RH  065%=      5-min Rain = 0
KVP1 250402Z 05013KT 18/11 A297 RMK A01 T01760110  RH  065%=      5-min Rain = 0
KVP1 250403Z 06010G15KT 18/11 A297 RMK A01 T01760109  RH  065%=      5-min Rain = 0
KVP1 250404Z 05009KT 18/11 A2971 RMK A01 T01750110  RH  065%=      5-min Rain = 0
KVP1 250405Z 05010KT 18/11 A2971 RMK A01 T01750109  RH  065%=      5-min Rain = 0
KVP1 250406Z 05009KT 18/11 A2971 RMK A01 T01750109  RH  065%=      5-min Rain = 0
KVP1 250407Z 06008KT 18/11 A2971 RMK A01 T01750109  RH  065%=      5-min Rain = 0
KVP1 250408Z 06009KT 18/11 A2971 RMK A01 T01750109  RH  065%=      5-min Rain = 0
KVP1 250409Z 07009KT 17/11 A2971 RMK A01 T01740110  RH  066%=      5-min Rain = 0
KVP1 250410Z 06009KT 17/11 A2971 RMK A01 T01740109  RH  066%=      5-min Rain = 0
KVP1 250411Z 06009KT 17/11 A2971 RMK A01 T01740108  RH  065%=      5-min Rain = 0
KVP1 250412Z 06009KT 18/11 A2971 RMK A01 T01750108  RH  065%=      5-min Rain = 0
KVP1 250413Z 05010KT 18/11 A2971 RMK A01 T01750108  RH  065%=      5-min Rain = 0
KVP1 250414Z 06009KT 18/11 A2972 RMK A01 T01750108  RH  065%=      5-min Rain = 0
KVP1 250415Z 07008KT 18/11 A2972 RMK A01 T01750108  RH  065%=      5-min Rain = 0
KVP1 250416Z 07009KT 18/11 A2973 RMK A01 T01750110  RH  066%=      5-min Rain = 0
KVP1 250417Z 07009KT 17/11 A2973 RMK A01 T01740110  RH  066%=      5-min Rain = 0
KVP1 250418Z 08010KT 17/11 A2973 RMK A01 T01740108  RH  065%=      5-min Rain = 0
KVP1 250419Z 08012G17KT 18/11 A2973 RMK A01 T01770105  RH  062%=      5-min Rain = 0
KVP1 250420Z 10012KT 18/11 A2973 RMK A01 T01800105  RH  062%=      5-min Rain = 0
KVP1 250421Z 11009KT 18/11 A2973 RMK A01 T01810107  RH  062%=      5-min Rain = 0
KVP1 250422Z 15008KT 18/11 A2974 RMK A01 T01800109  RH  063%=      5-min Rain = 0
KVP1 250423Z 13008KT 18/11 A2974 RMK A01 T01770110  RH  065%=      5-min Rain = 0
KVP1 250424Z 13007KT 18/11 A2974 RMK A01 T01760109  RH  065%=      5-min Rain = 0
KVP1 250425Z 11005KT 18/11 A2974 RMK A01 T01750110  RH  065%=      5-min Rain = 0
KVP1 250426Z 10005KT 17/11 A2974 RMK A01 T01740110  RH  066%=      5-min Rain = 0
KVP1 250427Z 09005KT 17/11 A2974 RMK A01 T01730110  RH  066%=      5-min Rain = 0
KVP1 250428Z 08005KT 17/11 A2974 RMK A01 T01730111  RH  067%=      5-min Rain = 0
KVP1 250429Z 11004KT 17/11 A2974 RMK A01 T01720111  RH  067%=      5-min Rain = 0
KVP1 250430Z 13005KT 17/11 A2974 RMK A01 T01710112  RH  068%=      5-min Rain = 0
KVP1 250431Z 14008KT 17/11 A2974 RMK A01 T01710111  RH  068%=      5-min Rain = 0
KVP1 250432Z 14007KT 17/11 A2974 RMK A01 T01710111  RH  068%=      5-min Rain = 0
KVP1 250433Z 14007KT 17/11 A2975 RMK A01 T01720111  RH  067%=      5-min Rain = 0
KVP1 250434Z 14007KT 17/11 A2975 RMK A01 T01730112  RH  067%=      5-min Rain = 0
KVP1 250435Z 15008KT 17/11 A2975 RMK A01 T01740113  RH  067%=      5-min Rain = 0
KVP1 250436Z 14007KT 17/11 A2975 RMK A01 T01740113  RH  067%=      5-min Rain = 0
KVP1 250437Z 14007KT 17/11 A2975 RMK A01 T01740114  RH  067%=      5-min Rain = 0
KVP1 250438Z 13007KT 17/11 A2975 RMK A01 T01740114  RH  068%=      5-min Rain = 0
KVP1 250439Z 13007KT 17/11 A2975 RMK A01 T01740114  RH  068%=      5-min Rain = 0
KVP1 250440Z 14008KT 17/11 A2975 RMK A01 T01730114  RH  068%=      5-min Rain = 0
KVP1 250441Z 13008KT 17/11 A2974 RMK A01 T01730114  RH  068%=      5-min Rain = 0
KVP1 250442Z 12008KT 17/11 A2974 RMK A01 T01730113  RH  068%=      5-min Rain = 0
KVP1 250443Z 12006KT 17/11 A2974 RMK A01 T01730113  RH  068%=      5-min Rain = 0
KVP1 250444Z 12006KT 17/11 A2974 RMK A01 T01740114  RH  068%=      5-min Rain = 0
KVP1 250445Z 13005KT 17/11 A2974 RMK A01 T01730114  RH  068%=      5-min Rain = 0
KVP1 250446Z 12005KT 17/12 A2974 RMK A01 T01720115  RH  069%=      5-min Rain = 0
KVP1 250447Z 11005KT 17/12 A2975 RMK A01 T01710115  RH  070%=      5-min Rain = 0
KVP1 250448Z 11007KT 17/12 A2975 RMK A01 T01700116  RH  070%=      5-min Rain = 0
KVP1 250449Z 12007KT 17/12 A2976 RMK A01 T01690116  RH  071%=      5-min Rain = 0
KVP1 250450Z 13006KT 17/12 A2976 RMK A01 T01680117  RH  072%=      5-min Rain = 0
KVP1 250451Z 14006KT 17/12 A2976 RMK A01 T01670117  RH  072%=      5-min Rain = 0
KVP1 250452Z 14007KT 17/12 A2976 RMK A01 T01660117  RH  073%=      5-min Rain = 0
KVP1 250453Z 14007KT 17/12 A2976 RMK A01 T01660118  RH  073%=      5-min Rain = 0
KVP1 250454Z 14006KT 17/12 A2976 RMK A01 T01650117  RH  073%=      5-min Rain = 0
KVP1 250455Z 15006KT 17/12 A2976 RMK A01 T01650118  RH  074%=      5-min Rain = 0
KVP1 250456Z 14004KT 16/12 A2976 RMK A01 T01640118  RH  074%=      5-min Rain = 0
KVP1 250457Z 11004KT 16/12 A2976 RMK A01 T01640117  RH  074%=      5-min Rain = 0
KVP1 250458Z 11004KT 16/12 A2977 RMK A01 T01640117  RH  074%=      5-min Rain = 0
KVP1 250459Z 11004KT 16/12 A2977 RMK A01 T01640116  RH  074%=      5-min Rain = 0

Page generated in 0.1453 seconds.